VIR3A SAEZ-EGKK
Flight info
| Callsign | VIR3A |
|---|---|
| Flight time | 13h 27m |
| Altitude | 33000 |
| Route | DORVO1J DORVO UN857 XUVUD/N0488F350 UN857 UTRAM/N0463F270 UB623 CVS/N0471F380 DCT LIMAL DCT URQUI DCT GOMER DCT ASMAR UN741 DEMOS DCT KORUL DCT KOLEK DCT TERKU DCT LAPLI DCT ORIST L982 VASUX |
| Aircraft | A346/H-SDE2E3FGHIJ3J4J5M1RWXY/LB1D1 |
Departure
| Time | 2026-05-03 22:36 |
|---|---|
| Airport | Ezeiza International Airport - Ministro Pistarini (SAEZ) |
Arrival
| Time | 2026-05-04 12:03 |
|---|---|
| Airport | London Gatwick Airport (EGKK) |
| Time | Latitude | Longitude | Altitude | Speed | Heading |
|---|---|---|---|---|---|
| 2026-05-03 21:52 | -34.81610 | -58.53976 | 89 ft | 0 kts | 321° |
| 2026-05-03 22:25 | -34.81611 | -58.53975 | 83 ft | 2 kts | 321° |
| 2026-05-03 22:25 | -34.81629 | -58.53955 | 88 ft | 4 kts | 315° |
| 2026-05-03 22:25 | -34.81648 | -58.53932 | 86 ft | 4 kts | 311° |
| 2026-05-03 22:25 | -34.81665 | -58.53907 | 87 ft | 4 kts | 308° |
| 2026-05-03 22:26 | -34.81682 | -58.53885 | 87 ft | 4 kts | 327° |
| 2026-05-03 22:26 | -34.81699 | -58.53878 | 87 ft | 4 kts | 358° |
| 2026-05-03 22:26 | -34.81715 | -58.53882 | 86 ft | 4 kts | 38° |
| 2026-05-03 22:26 | -34.81729 | -58.53904 | 86 ft | 4 kts | 61° |
| 2026-05-03 22:27 | -34.81739 | -58.53926 | 86 ft | 0 kts | 60° |
| 2026-05-03 22:30 | -34.81723 | -58.53895 | 85 ft | 10 kts | 59° |
| 2026-05-03 22:30 | -34.81724 | -58.53762 | 85 ft | 22 kts | 118° |
| 2026-05-03 22:30 | -34.81808 | -58.53677 | 88 ft | 18 kts | 151° |
| 2026-05-03 22:31 | -34.81917 | -58.53611 | 84 ft | 21 kts | 158° |
| 2026-05-03 22:31 | -34.82078 | -58.53534 | 87 ft | 28 kts | 156° |
| 2026-05-03 22:31 | -34.82261 | -58.53435 | 92 ft | 26 kts | 156° |
| 2026-05-03 22:31 | -34.82466 | -58.53316 | 90 ft | 36 kts | 154° |
| 2026-05-03 22:32 | -34.82665 | -58.53205 | 95 ft | 37 kts | 155° |
| 2026-05-03 22:32 | -34.82886 | -58.53079 | 94 ft | 34 kts | 155° |
| 2026-05-03 22:32 | -34.83086 | -58.52970 | 96 ft | 30 kts | 156° |
| 2026-05-03 22:32 | -34.83299 | -58.52854 | 96 ft | 30 kts | 152° |
| 2026-05-03 22:33 | -34.83452 | -58.52750 | 97 ft | 22 kts | 152° |
| 2026-05-03 22:33 | -34.83521 | -58.52706 | 97 ft | 0 kts | 147° |
| 2026-05-03 22:33 | -34.83542 | -58.52684 | 97 ft | 10 kts | 133° |
| 2026-05-03 22:33 | -34.83558 | -58.52580 | 89 ft | 0 kts | 66° |
| 2026-05-03 22:34 | -34.83541 | -58.52547 | 90 ft | 5 kts | 52° |
| 2026-05-03 22:34 | -34.83534 | -58.52537 | 92 ft | 5 kts | 48° |
| 2026-05-03 22:34 | -34.83487 | -58.52490 | 94 ft | 13 kts | 12° |
| 2026-05-03 22:34 | -34.83414 | -58.52500 | 93 ft | 13 kts | 346° |
| 2026-05-03 22:35 | -34.83286 | -58.52544 | 92 ft | 20 kts | 344° |
| 2026-05-03 22:35 | -34.82979 | -58.52649 | 91 ft | 78 kts | 344° |
| 2026-05-03 22:35 | -34.82256 | -58.52900 | 93 ft | 136 kts | 345° |
| 2026-05-03 22:35 | -34.81183 | -58.53279 | 103 ft | 182 kts | 344° |
| 2026-05-03 22:36 | -34.79923 | -58.53723 | 586 ft | 189 kts | 345° |
| 2026-05-03 22:36 | -34.78642 | -58.54178 | 1214 ft | 195 kts | 345° |
| 2026-05-03 22:36 | -34.77757 | -58.54499 | 1727 ft | 196 kts | 344° |
| 2026-05-03 22:36 | -34.76448 | -58.54982 | 2475 ft | 195 kts | 342° |
| 2026-05-03 22:37 | -34.75180 | -58.55459 | 3113 ft | 188 kts | 342° |
| 2026-05-03 22:37 | -34.73940 | -58.55936 | 3639 ft | 186 kts | 339° |
| 2026-05-03 22:37 | -34.72675 | -58.56186 | 4019 ft | 194 kts | 6° |
| 2026-05-03 22:37 | -34.71442 | -58.55364 | 4311 ft | 211 kts | 49° |
| 2026-05-03 22:38 | -34.70967 | -58.53681 | 4714 ft | 222 kts | 83° |
| 2026-05-03 22:38 | -34.70897 | -58.51783 | 5094 ft | 227 kts | 84° |
| 2026-05-03 22:38 | -34.70851 | -58.49851 | 5499 ft | 231 kts | 85° |
| 2026-05-03 22:38 | -34.70830 | -58.47841 | 5789 ft | 246 kts | 86° |
| 2026-05-03 22:39 | -34.70825 | -58.45685 | 6198 ft | 263 kts | 88° |
| 2026-05-03 22:39 | -34.70835 | -58.43384 | 6627 ft | 281 kts | 88° |
| 2026-05-03 22:39 | -34.70856 | -58.40933 | 7082 ft | 296 kts | 89° |
| 2026-05-03 22:39 | -34.70883 | -58.38401 | 7762 ft | 301 kts | 89° |
| 2026-05-03 22:40 | -34.70912 | -58.35828 | 8472 ft | 307 kts | 89° |
| 2026-05-03 22:40 | -34.70941 | -58.33209 | 9189 ft | 312 kts | 89° |
| 2026-05-03 22:40 | -34.70971 | -58.30540 | 9886 ft | 318 kts | 89° |
| 2026-05-03 22:40 | -34.71000 | -58.27826 | 10526 ft | 323 kts | 90° |
| 2026-05-03 22:41 | -34.71028 | -58.25076 | 11170 ft | 327 kts | 90° |
| 2026-05-03 22:41 | -34.71057 | -58.22286 | 11810 ft | 331 kts | 90° |
| 2026-05-03 22:41 | -34.71085 | -58.19467 | 12435 ft | 334 kts | 90° |
| 2026-05-03 22:41 | -34.71113 | -58.16629 | 13129 ft | 334 kts | 91° |
| 2026-05-03 22:42 | -34.71140 | -58.13794 | 13754 ft | 337 kts | 91° |
| 2026-05-03 22:42 | -34.71168 | -58.10906 | 14172 ft | 345 kts | 91° |
| 2026-05-03 22:42 | -34.71198 | -58.07965 | 14600 ft | 350 kts | 91° |
| 2026-05-03 22:42 | -34.71226 | -58.04989 | 15075 ft | 353 kts | 91° |
| 2026-05-03 22:43 | -34.71253 | -58.01994 | 15557 ft | 356 kts | 91° |
| 2026-05-03 22:43 | -34.71278 | -57.98982 | 15924 ft | 357 kts | 92° |
| 2026-05-03 22:43 | -34.71307 | -57.95942 | 16215 ft | 361 kts | 92° |
| 2026-05-03 22:43 | -34.71343 | -57.92875 | 16511 ft | 364 kts | 91° |
| 2026-05-03 22:44 | -34.71368 | -57.89779 | 16876 ft | 367 kts | 92° |
| 2026-05-03 22:44 | -34.71394 | -57.86680 | 17295 ft | 367 kts | 92° |
| 2026-05-03 22:44 | -34.71422 | -57.83572 | 17570 ft | 369 kts | 92° |
| 2026-05-03 22:44 | -34.71447 | -57.80431 | 17836 ft | 374 kts | 92° |
| 2026-05-03 22:45 | -34.71466 | -57.77253 | 18207 ft | 376 kts | 92° |
| 2026-05-03 22:45 | -34.71485 | -57.74074 | 18558 ft | 377 kts | 92° |
| 2026-05-03 22:45 | -34.71504 | -57.70862 | 18833 ft | 381 kts | 92° |
| 2026-05-03 22:45 | -34.71523 | -57.67638 | 19138 ft | 383 kts | 92° |
| 2026-05-03 22:46 | -34.71542 | -57.64379 | 19524 ft | 386 kts | 92° |
| 2026-05-03 22:46 | -34.71558 | -57.61099 | 19952 ft | 388 kts | 92° |
| 2026-05-03 22:46 | -34.71573 | -57.57808 | 20300 ft | 389 kts | 92° |
| 2026-05-03 22:46 | -34.71570 | -57.54584 | 20378 ft | 373 kts | 86° |
| 2026-05-03 22:47 | -34.71070 | -57.51569 | 20390 ft | 355 kts | 65° |
| 2026-05-03 22:47 | -34.70166 | -57.49303 | 20407 ft | 338 kts | 58° |
| 2026-05-03 22:47 | -34.68966 | -57.46891 | 20471 ft | 334 kts | 53° |
| 2026-05-03 22:47 | -34.67596 | -57.44579 | 20609 ft | 333 kts | 48° |
| 2026-05-03 22:48 | -34.66127 | -57.42459 | 20652 ft | 328 kts | 43° |
| 2026-05-03 22:48 | -34.64513 | -57.40462 | 20812 ft | 334 kts | 40° |
| 2026-05-03 22:48 | -34.62842 | -57.38446 | 20955 ft | 343 kts | 42° |
| 2026-05-03 22:48 | -34.61177 | -57.36318 | 21128 ft | 352 kts | 44° |
| 2026-05-03 22:49 | -34.59520 | -57.34076 | 21296 ft | 360 kts | 45° |
| 2026-05-03 22:49 | -34.57913 | -57.31819 | 21353 ft | 358 kts | 47° |
| 2026-05-03 22:49 | -34.56304 | -57.29498 | 21414 ft | 361 kts | 47° |
| 2026-05-03 22:49 | -34.54683 | -57.27161 | 21484 ft | 365 kts | 46° |
| 2026-05-03 22:50 | -34.53019 | -57.24784 | 21631 ft | 372 kts | 46° |
| 2026-05-03 22:50 | -34.51330 | -57.22363 | 21782 ft | 380 kts | 46° |
| 2026-05-03 22:50 | -34.49605 | -57.19884 | 21932 ft | 387 kts | 47° |
| 2026-05-03 22:50 | -34.47851 | -57.17360 | 22087 ft | 395 kts | 47° |
| 2026-05-03 22:51 | -34.46069 | -57.14793 | 22296 ft | 400 kts | 47° |
| 2026-05-03 22:51 | -34.44269 | -57.12200 | 22592 ft | 404 kts | 47° |
| 2026-05-03 22:51 | -34.42456 | -57.09590 | 22934 ft | 405 kts | 47° |
| 2026-05-03 22:51 | -34.40636 | -57.06970 | 23293 ft | 407 kts | 47° |
| 2026-05-03 22:52 | -34.38804 | -57.04336 | 23600 ft | 409 kts | 47° |
| 2026-05-03 22:52 | -34.36963 | -57.01691 | 23882 ft | 411 kts | 47° |
| 2026-05-03 22:52 | -34.35112 | -56.99034 | 24116 ft | 414 kts | 47° |
| 2026-05-03 22:52 | -34.33250 | -56.96361 | 24385 ft | 416 kts | 47° |
| 2026-05-03 22:53 | -34.31375 | -56.93671 | 24644 ft | 419 kts | 47° |
| 2026-05-03 22:53 | -34.29489 | -56.90968 | 24892 ft | 421 kts | 47° |
| 2026-05-03 22:53 | -34.27593 | -56.88255 | 25144 ft | 423 kts | 47° |
| 2026-05-03 22:53 | -34.25680 | -56.85522 | 25370 ft | 426 kts | 47° |
| 2026-05-03 22:54 | -34.23753 | -56.82781 | 25627 ft | 428 kts | 47° |
| 2026-05-03 22:54 | -34.21821 | -56.80034 | 25883 ft | 430 kts | 47° |
| 2026-05-03 22:54 | -34.19877 | -56.77268 | 26129 ft | 432 kts | 47° |
| 2026-05-03 22:54 | -34.17925 | -56.74490 | 26384 ft | 434 kts | 47° |
| 2026-05-03 22:55 | -34.15962 | -56.71698 | 26599 ft | 437 kts | 47° |
| 2026-05-03 22:55 | -34.13985 | -56.68890 | 26851 ft | 439 kts | 47° |
| 2026-05-03 22:55 | -34.12025 | -56.66106 | 27078 ft | 441 kts | 47° |
| 2026-05-03 22:55 | -34.10027 | -56.63272 | 27305 ft | 444 kts | 47° |
| 2026-05-03 22:56 | -34.08019 | -56.60426 | 27553 ft | 446 kts | 47° |
| 2026-05-03 22:56 | -34.06003 | -56.57570 | 27756 ft | 448 kts | 47° |
| 2026-05-03 22:56 | -34.03971 | -56.54696 | 28011 ft | 450 kts | 48° |
| 2026-05-03 22:56 | -34.01937 | -56.51819 | 28256 ft | 452 kts | 48° |
| 2026-05-03 22:57 | -33.99893 | -56.48929 | 28468 ft | 454 kts | 48° |
| 2026-05-03 22:57 | -33.97836 | -56.46023 | 28719 ft | 456 kts | 48° |
| 2026-05-03 22:57 | -33.95771 | -56.43107 | 28899 ft | 459 kts | 48° |
| 2026-05-03 22:57 | -33.93693 | -56.40176 | 29134 ft | 460 kts | 48° |
| 2026-05-03 22:58 | -33.91606 | -56.37234 | 29342 ft | 462 kts | 48° |
| 2026-05-03 22:58 | -33.89505 | -56.34277 | 29559 ft | 465 kts | 48° |
| 2026-05-03 22:58 | -33.87424 | -56.31356 | 29768 ft | 467 kts | 48° |
| 2026-05-03 22:58 | -33.85267 | -56.28348 | 29987 ft | 469 kts | 48° |
| 2026-05-03 22:59 | -33.83128 | -56.25369 | 30189 ft | 471 kts | 48° |
| 2026-05-03 22:59 | -33.81013 | -56.22422 | 30374 ft | 472 kts | 48° |
| 2026-05-03 22:59 | -33.78860 | -56.19423 | 30542 ft | 474 kts | 48° |
| 2026-05-03 22:59 | -33.76703 | -56.16414 | 30725 ft | 476 kts | 48° |
| 2026-05-03 23:00 | -33.74540 | -56.13392 | 30941 ft | 477 kts | 48° |
| 2026-05-03 23:00 | -33.72373 | -56.10364 | 31094 ft | 479 kts | 48° |
| 2026-05-03 23:00 | -33.70196 | -56.07324 | 31290 ft | 480 kts | 48° |
| 2026-05-03 23:00 | -33.68014 | -56.04278 | 31456 ft | 481 kts | 48° |
| 2026-05-03 23:01 | -33.65825 | -56.01224 | 31615 ft | 483 kts | 48° |
| 2026-05-03 23:01 | -33.63629 | -55.98164 | 31802 ft | 484 kts | 48° |
| 2026-05-03 23:01 | -33.61426 | -55.95097 | 31971 ft | 486 kts | 48° |
| 2026-05-03 23:01 | -33.59215 | -55.92021 | 32128 ft | 487 kts | 48° |
| 2026-05-03 23:02 | -33.57002 | -55.88945 | 32319 ft | 488 kts | 48° |
| 2026-05-03 23:02 | -33.54777 | -55.85854 | 32449 ft | 490 kts | 48° |
| 2026-05-03 23:02 | -33.52545 | -55.82756 | 32615 ft | 491 kts | 48° |
| 2026-05-03 23:02 | -33.50309 | -55.79656 | 32787 ft | 492 kts | 48° |
| 2026-05-03 23:03 | -33.48061 | -55.76546 | 32910 ft | 494 kts | 49° |
| 2026-05-03 23:03 | -33.45810 | -55.73433 | 33079 ft | 494 kts | 49° |
| 2026-05-03 23:03 | -33.43554 | -55.70307 | 33134 ft | 497 kts | 49° |
| 2026-05-03 23:04 | -33.39014 | -55.64022 | 33144 ft | 499 kts | 49° |
| 2026-05-03 23:04 | -33.34460 | -55.57738 | 33144 ft | 499 kts | 49° |
| 2026-05-03 23:05 | -33.29935 | -55.51509 | 33152 ft | 499 kts | 49° |
| 2026-05-03 23:05 | -33.25381 | -55.45255 | 33149 ft | 498 kts | 49° |
| 2026-05-03 23:06 | -33.20831 | -55.39009 | 33148 ft | 498 kts | 49° |
| 2026-05-03 23:06 | -33.16274 | -55.32768 | 33153 ft | 498 kts | 49° |
| 2026-05-03 23:07 | -33.11713 | -55.26533 | 33153 ft | 498 kts | 49° |
| 2026-05-03 23:07 | -33.07160 | -55.20321 | 33145 ft | 497 kts | 49° |
| 2026-05-03 23:08 | -33.02604 | -55.14113 | 33150 ft | 496 kts | 49° |
| 2026-05-03 23:08 | -32.98048 | -55.07916 | 33155 ft | 496 kts | 49° |
| 2026-05-03 23:09 | -32.93488 | -55.01724 | 33157 ft | 496 kts | 49° |
| 2026-05-03 23:09 | -32.88967 | -54.95590 | 33160 ft | 496 kts | 48° |
| 2026-05-03 23:10 | -32.84407 | -54.89423 | 33158 ft | 496 kts | 48° |
| 2026-05-03 23:10 | -32.79850 | -54.83267 | 33163 ft | 496 kts | 48° |
| 2026-05-03 23:11 | -32.75286 | -54.77112 | 33163 ft | 495 kts | 48° |
| 2026-05-03 23:11 | -32.70728 | -54.70969 | 33161 ft | 495 kts | 47° |
| 2026-05-03 23:12 | -32.66169 | -54.64838 | 33155 ft | 494 kts | 47° |
| 2026-05-03 23:12 | -32.61606 | -54.58721 | 33159 ft | 494 kts | 47° |
| 2026-05-03 23:13 | -32.57046 | -54.52613 | 33164 ft | 494 kts | 47° |
| 2026-05-03 23:13 | -32.52482 | -54.46501 | 33166 ft | 494 kts | 47° |
| 2026-05-03 23:14 | -32.47913 | -54.40401 | 33164 ft | 494 kts | 46° |
| 2026-05-03 23:14 | -32.43347 | -54.34315 | 33167 ft | 494 kts | 46° |
| 2026-05-03 23:15 | -32.38778 | -54.28229 | 33163 ft | 494 kts | 46° |
| 2026-05-03 23:15 | -32.34210 | -54.22154 | 33156 ft | 494 kts | 46° |
| 2026-05-03 23:16 | -32.29684 | -54.16044 | 33136 ft | 493 kts | 47° |
| 2026-05-03 23:16 | -32.25171 | -54.09918 | 33152 ft | 493 kts | 47° |
| 2026-05-03 23:17 | -32.20657 | -54.03806 | 33155 ft | 493 kts | 47° |
| 2026-05-03 23:17 | -32.16172 | -53.97740 | 33158 ft | 493 kts | 46° |
| 2026-05-03 23:18 | -32.11650 | -53.91636 | 33164 ft | 493 kts | 46° |
| 2026-05-03 23:18 | -32.07128 | -53.85548 | 33169 ft | 493 kts | 46° |
| 2026-05-03 23:19 | -32.02600 | -53.79477 | 33175 ft | 493 kts | 46° |
| 2026-05-03 23:19 | -31.98071 | -53.73422 | 33177 ft | 492 kts | 46° |
| 2026-05-03 23:20 | -31.93543 | -53.67368 | 33176 ft | 492 kts | 46° |
| 2026-05-03 23:20 | -31.89018 | -53.61318 | 33172 ft | 491 kts | 46° |
| 2026-05-03 23:21 | -31.84496 | -53.55285 | 33175 ft | 491 kts | 46° |
| 2026-05-03 23:21 | -31.79963 | -53.49250 | 33179 ft | 491 kts | 46° |
| 2026-05-03 23:22 | -31.73166 | -53.40218 | 33182 ft | 491 kts | 46° |
| 2026-05-03 23:22 | -31.68661 | -53.34243 | 33184 ft | 491 kts | 46° |
| 2026-05-03 23:23 | -31.64125 | -53.28238 | 33184 ft | 491 kts | 46° |
| 2026-05-03 23:23 | -31.59591 | -53.22236 | 33186 ft | 491 kts | 46° |
| 2026-05-03 23:24 | -31.55052 | -53.16247 | 33188 ft | 491 kts | 46° |
| 2026-05-03 23:24 | -31.50510 | -53.10260 | 33171 ft | 490 kts | 46° |
| 2026-05-03 23:25 | -31.45971 | -53.04287 | 33189 ft | 490 kts | 45° |
| 2026-05-03 23:25 | -31.42197 | -52.99325 | 33186 ft | 490 kts | 45° |
| 2026-05-03 23:26 | -31.37660 | -52.93368 | 33191 ft | 490 kts | 45° |
| 2026-05-03 23:26 | -31.33117 | -52.87418 | 33193 ft | 489 kts | 45° |
| 2026-05-03 23:27 | -31.28576 | -52.81477 | 33197 ft | 489 kts | 45° |
| 2026-05-03 23:27 | -31.24034 | -52.75535 | 33194 ft | 489 kts | 45° |
| 2026-05-03 23:28 | -31.19488 | -52.69608 | 33195 ft | 489 kts | 45° |
| 2026-05-03 23:28 | -31.14935 | -52.63693 | 33193 ft | 489 kts | 45° |
| 2026-05-03 23:29 | -31.10414 | -52.57819 | 33183 ft | 488 kts | 45° |
| 2026-05-03 23:29 | -31.05867 | -52.51916 | 33185 ft | 488 kts | 45° |
| 2026-05-03 23:30 | -31.01324 | -52.46025 | 33190 ft | 488 kts | 44° |
| 2026-05-03 23:30 | -30.96781 | -52.40145 | 33191 ft | 488 kts | 44° |
| 2026-05-03 23:31 | -30.92230 | -52.34263 | 33194 ft | 488 kts | 44° |
| 2026-05-03 23:31 | -30.87666 | -52.28412 | 33195 ft | 488 kts | 44° |
| 2026-05-03 23:32 | -30.83039 | -52.22646 | 33194 ft | 486 kts | 43° |
| 2026-05-03 23:32 | -30.78413 | -52.16892 | 33193 ft | 486 kts | 43° |
| 2026-05-03 23:33 | -30.73796 | -52.11137 | 33196 ft | 486 kts | 43° |
| 2026-05-03 23:33 | -30.69173 | -52.05385 | 33197 ft | 486 kts | 43° |
| 2026-05-03 23:34 | -30.64554 | -51.99651 | 33196 ft | 486 kts | 43° |
| 2026-05-03 23:34 | -30.59933 | -51.93917 | 33196 ft | 486 kts | 43° |
| 2026-05-03 23:35 | -30.55312 | -51.88187 | 33196 ft | 486 kts | 43° |
| 2026-05-03 23:35 | -30.50687 | -51.82459 | 33198 ft | 486 kts | 43° |
| 2026-05-03 23:36 | -30.46063 | -51.76741 | 33196 ft | 485 kts | 43° |
| 2026-05-03 23:36 | -30.41498 | -51.70962 | 33195 ft | 486 kts | 45° |
| 2026-05-03 23:37 | -30.37046 | -51.65119 | 33195 ft | 486 kts | 45° |
| 2026-05-03 23:37 | -30.32562 | -51.59250 | 33172 ft | 486 kts | 45° |
| 2026-05-03 23:38 | -30.28064 | -51.53389 | 33188 ft | 487 kts | 45° |
| 2026-05-03 23:38 | -30.23558 | -51.47532 | 33189 ft | 487 kts | 45° |
| 2026-05-03 23:39 | -30.19050 | -51.41681 | 33178 ft | 487 kts | 45° |
| 2026-05-03 23:39 | -30.14542 | -51.35838 | 33168 ft | 487 kts | 45° |
| 2026-05-03 23:40 | -30.10032 | -51.30002 | 33156 ft | 487 kts | 45° |
| 2026-05-03 23:40 | -30.05513 | -51.24160 | 33149 ft | 487 kts | 45° |
| 2026-05-03 23:41 | -30.00997 | -51.18330 | 33149 ft | 487 kts | 45° |
| 2026-05-03 23:41 | -29.96501 | -51.12556 | 33177 ft | 486 kts | 44° |
| 2026-05-03 23:42 | -29.91967 | -51.06757 | 33176 ft | 486 kts | 44° |
| 2026-05-03 23:42 | -29.87426 | -51.00950 | 33178 ft | 486 kts | 44° |
| 2026-05-03 23:43 | -29.82896 | -50.95160 | 33183 ft | 486 kts | 44° |
| 2026-05-03 23:43 | -29.78363 | -50.89376 | 33187 ft | 486 kts | 44° |
| 2026-05-03 23:44 | -29.73820 | -50.83587 | 33192 ft | 486 kts | 44° |
| 2026-05-03 23:44 | -29.69285 | -50.77814 | 33195 ft | 486 kts | 44° |
| 2026-05-03 23:45 | -29.64772 | -50.72077 | 33194 ft | 486 kts | 44° |
| 2026-05-03 23:45 | -29.60220 | -50.66299 | 33199 ft | 486 kts | 44° |
| 2026-05-03 23:46 | -29.55676 | -50.60538 | 33196 ft | 486 kts | 44° |
| 2026-05-03 23:46 | -29.51115 | -50.54799 | 33205 ft | 486 kts | 43° |
| 2026-05-03 23:47 | -29.46460 | -50.49166 | 33223 ft | 486 kts | 43° |
| 2026-05-03 23:47 | -29.41793 | -50.43542 | 33225 ft | 486 kts | 43° |
| 2026-05-03 23:48 | -29.37135 | -50.37914 | 33236 ft | 486 kts | 43° |
| 2026-05-03 23:48 | -29.32512 | -50.32330 | 33242 ft | 486 kts | 43° |
| 2026-05-03 23:49 | -29.27855 | -50.26711 | 33241 ft | 486 kts | 43° |
| 2026-05-03 23:49 | -29.23199 | -50.21099 | 33247 ft | 486 kts | 43° |
| 2026-05-03 23:50 | -29.19322 | -50.16434 | 33249 ft | 486 kts | 43° |
| 2026-05-03 23:50 | -29.13871 | -50.09882 | 33249 ft | 486 kts | 43° |
| 2026-05-03 23:51 | -29.09193 | -50.04267 | 33241 ft | 487 kts | 43° |
| 2026-05-03 23:51 | -29.04514 | -49.98658 | 33246 ft | 487 kts | 43° |
| 2026-05-03 23:52 | -28.99832 | -49.93052 | 33243 ft | 487 kts | 43° |
| 2026-05-03 23:52 | -28.95147 | -49.87448 | 33233 ft | 487 kts | 43° |
| 2026-05-03 23:53 | -28.90458 | -49.81852 | 33238 ft | 487 kts | 43° |
| 2026-05-03 23:53 | -28.85859 | -49.76153 | 33239 ft | 488 kts | 44° |
| 2026-05-03 23:54 | -28.81340 | -49.70420 | 33244 ft | 489 kts | 44° |
| 2026-05-03 23:54 | -28.76751 | -49.64627 | 33226 ft | 489 kts | 44° |
| 2026-05-03 23:55 | -28.72181 | -49.58879 | 33230 ft | 489 kts | 44° |
| 2026-05-03 23:55 | -28.67596 | -49.53125 | 33233 ft | 490 kts | 44° |
| 2026-05-03 23:56 | -28.63036 | -49.47409 | 33237 ft | 490 kts | 44° |
| 2026-05-03 23:56 | -28.58443 | -49.41661 | 33235 ft | 490 kts | 44° |
| 2026-05-03 23:57 | -28.53849 | -49.35916 | 33240 ft | 490 kts | 44° |
| 2026-05-03 23:57 | -28.49247 | -49.30168 | 33234 ft | 490 kts | 44° |
| 2026-05-03 23:58 | -28.44643 | -49.24431 | 33236 ft | 491 kts | 44° |
| 2026-05-03 23:58 | -28.40028 | -49.18697 | 33239 ft | 491 kts | 44° |
| 2026-05-03 23:59 | -28.35417 | -49.12967 | 33238 ft | 491 kts | 44° |
| 2026-05-03 23:59 | -28.30800 | -49.07232 | 33225 ft | 491 kts | 43° |
| 2026-05-04 00:00 | -28.26183 | -49.01497 | 33240 ft | 492 kts | 44° |
| 2026-05-04 00:00 | -28.21592 | -48.95729 | 33247 ft | 492 kts | 44° |
| 2026-05-04 00:01 | -28.17025 | -48.90009 | 33248 ft | 492 kts | 44° |
| 2026-05-04 00:01 | -28.12397 | -48.84219 | 33248 ft | 492 kts | 44° |
| 2026-05-04 00:02 | -28.07802 | -48.78476 | 33250 ft | 491 kts | 44° |
| 2026-05-04 00:02 | -28.03240 | -48.72781 | 33251 ft | 491 kts | 44° |
| 2026-05-04 00:03 | -27.98649 | -48.67055 | 33244 ft | 491 kts | 44° |
| 2026-05-04 00:03 | -27.94050 | -48.61326 | 33243 ft | 492 kts | 43° |
| 2026-05-04 00:04 | -27.89440 | -48.55591 | 33228 ft | 493 kts | 43° |
| 2026-05-04 00:04 | -27.84818 | -48.49852 | 33235 ft | 493 kts | 43° |
| 2026-05-04 00:05 | -27.80195 | -48.44117 | 33233 ft | 493 kts | 43° |
| 2026-05-04 00:05 | -27.75575 | -48.38388 | 33231 ft | 493 kts | 43° |
| 2026-05-04 00:06 | -27.70948 | -48.32665 | 33235 ft | 493 kts | 43° |
| 2026-05-04 00:06 | -27.66348 | -48.26990 | 33237 ft | 493 kts | 43° |
| 2026-05-04 00:07 | -27.61709 | -48.21281 | 33235 ft | 493 kts | 43° |
| 2026-05-04 00:07 | -27.57077 | -48.15581 | 33241 ft | 493 kts | 43° |
| 2026-05-04 00:08 | -27.52441 | -48.09880 | 33237 ft | 493 kts | 43° |
| 2026-05-04 00:08 | -27.47800 | -48.04179 | 33237 ft | 493 kts | 43° |
| 2026-05-04 00:09 | -27.43158 | -47.98481 | 33237 ft | 494 kts | 43° |
| 2026-05-04 00:09 | -27.38504 | -47.92783 | 33238 ft | 494 kts | 42° |
| 2026-05-04 00:10 | -27.33831 | -47.87118 | 33241 ft | 493 kts | 42° |
| 2026-05-04 00:10 | -27.29152 | -47.81458 | 33238 ft | 493 kts | 42° |
| 2026-05-04 00:11 | -27.24476 | -47.75800 | 33234 ft | 494 kts | 42° |
| 2026-05-04 00:11 | -27.19831 | -47.70185 | 33236 ft | 494 kts | 42° |
| 2026-05-04 00:12 | -27.15153 | -47.64537 | 33236 ft | 493 kts | 42° |
| 2026-05-04 00:12 | -27.10473 | -47.58891 | 33200 ft | 494 kts | 41° |
| 2026-05-04 00:13 | -27.05778 | -47.53234 | 33226 ft | 496 kts | 41° |
| 2026-05-04 00:13 | -27.01072 | -47.47574 | 33234 ft | 496 kts | 41° |
| 2026-05-04 00:14 | -26.96365 | -47.41917 | 33233 ft | 496 kts | 41° |
| 2026-05-04 00:14 | -26.91657 | -47.36264 | 33235 ft | 496 kts | 41° |
| 2026-05-04 00:15 | -26.86940 | -47.30616 | 33232 ft | 495 kts | 41° |
| 2026-05-04 00:15 | -26.83016 | -47.25932 | 33230 ft | 495 kts | 41° |
| 2026-05-04 00:16 | -26.77539 | -47.19391 | 33232 ft | 495 kts | 41° |
| 2026-05-04 00:16 | -26.73584 | -47.14670 | 33238 ft | 496 kts | 41° |
| 2026-05-04 00:17 | -26.68856 | -47.09049 | 33219 ft | 496 kts | 40° |
| 2026-05-04 00:17 | -26.64107 | -47.03422 | 33230 ft | 497 kts | 40° |
| 2026-05-04 00:18 | -26.59353 | -46.97795 | 33233 ft | 497 kts | 40° |
| 2026-05-04 00:18 | -26.54614 | -46.92221 | 33233 ft | 498 kts | 40° |
| 2026-05-04 00:19 | -26.49829 | -46.86605 | 33233 ft | 498 kts | 40° |
| 2026-05-04 00:19 | -26.45052 | -46.80994 | 33232 ft | 498 kts | 40° |
| 2026-05-04 00:20 | -26.40267 | -46.75382 | 33234 ft | 498 kts | 40° |
| 2026-05-04 00:20 | -26.35478 | -46.69783 | 33233 ft | 498 kts | 40° |
| 2026-05-04 00:21 | -26.30687 | -46.64192 | 33212 ft | 498 kts | 40° |
| 2026-05-04 00:21 | -26.25888 | -46.58588 | 33226 ft | 500 kts | 39° |
| 2026-05-04 00:22 | -26.21113 | -46.53019 | 33229 ft | 501 kts | 39° |
| 2026-05-04 00:22 | -26.16295 | -46.47411 | 33230 ft | 501 kts | 39° |
| 2026-05-04 00:23 | -26.11472 | -46.41802 | 33234 ft | 501 kts | 39° |
| 2026-05-04 00:23 | -26.06648 | -46.36199 | 33224 ft | 501 kts | 39° |
| 2026-05-04 00:24 | -26.01822 | -46.30595 | 33225 ft | 501 kts | 39° |
| 2026-05-04 00:24 | -25.96994 | -46.25003 | 33230 ft | 501 kts | 39° |
| 2026-05-04 00:25 | -25.92161 | -46.19410 | 33232 ft | 501 kts | 39° |
| 2026-05-04 00:25 | -25.87332 | -46.13824 | 33226 ft | 501 kts | 38° |
| 2026-05-04 00:26 | -25.82501 | -46.08246 | 33224 ft | 501 kts | 38° |
| 2026-05-04 00:26 | -25.77690 | -46.02698 | 33231 ft | 501 kts | 38° |
| 2026-05-04 00:27 | -25.72857 | -45.97128 | 33228 ft | 501 kts | 38° |
| 2026-05-04 00:27 | -25.68021 | -45.91557 | 33231 ft | 501 kts | 38° |
| 2026-05-04 00:28 | -25.63174 | -45.85999 | 33232 ft | 500 kts | 38° |
| 2026-05-04 00:28 | -25.58328 | -45.80455 | 33227 ft | 500 kts | 38° |
| 2026-05-04 00:29 | -25.53487 | -45.74911 | 33217 ft | 501 kts | 38° |
| 2026-05-04 00:29 | -25.48638 | -45.69359 | 33222 ft | 501 kts | 38° |
| 2026-05-04 00:30 | -25.43815 | -45.63852 | 33229 ft | 501 kts | 37° |
| 2026-05-04 00:30 | -25.38961 | -45.58314 | 33231 ft | 501 kts | 37° |
| 2026-05-04 00:31 | -25.34106 | -45.52779 | 33225 ft | 500 kts | 37° |
| 2026-05-04 00:31 | -25.29259 | -45.47264 | 33228 ft | 500 kts | 37° |
| 2026-05-04 00:32 | -25.24409 | -45.41750 | 33229 ft | 500 kts | 37° |
| 2026-05-04 00:32 | -25.19556 | -45.36237 | 33219 ft | 499 kts | 37° |
| 2026-05-04 00:33 | -25.12290 | -45.27998 | 33204 ft | 499 kts | 37° |
| 2026-05-04 00:34 | -25.07485 | -45.22556 | 33220 ft | 498 kts | 37° |
| 2026-05-04 00:34 | -25.02648 | -45.17084 | 33217 ft | 497 kts | 37° |
| 2026-05-04 00:35 | -24.97805 | -45.11611 | 33221 ft | 497 kts | 37° |
| 2026-05-04 00:35 | -24.92975 | -45.06163 | 33223 ft | 496 kts | 37° |
| 2026-05-04 00:36 | -24.88141 | -45.00717 | 33223 ft | 496 kts | 37° |
| 2026-05-04 00:36 | -24.83311 | -44.95282 | 33223 ft | 496 kts | 37° |
| 2026-05-04 00:37 | -24.78476 | -44.89849 | 33214 ft | 495 kts | 37° |
| 2026-05-04 00:37 | -24.73654 | -44.84433 | 33217 ft | 495 kts | 37° |
| 2026-05-04 00:38 | -24.68827 | -44.79016 | 33234 ft | 495 kts | 37° |
| 2026-05-04 00:38 | -24.63999 | -44.73608 | 33205 ft | 494 kts | 37° |
| 2026-05-04 00:39 | -24.59213 | -44.68251 | 33213 ft | 494 kts | 37° |
| 2026-05-04 00:39 | -24.54395 | -44.62860 | 33216 ft | 494 kts | 37° |
| 2026-05-04 00:40 | -24.49577 | -44.57477 | 33197 ft | 493 kts | 37° |
| 2026-05-04 00:40 | -24.44727 | -44.52166 | 33217 ft | 491 kts | 36° |
| 2026-05-04 00:41 | -24.39862 | -44.46878 | 33216 ft | 491 kts | 36° |
| 2026-05-04 00:41 | -24.35008 | -44.41594 | 33231 ft | 491 kts | 36° |
| 2026-05-04 00:42 | -24.30157 | -44.36315 | 33212 ft | 491 kts | 36° |
| 2026-05-04 00:42 | -24.25310 | -44.31042 | 33214 ft | 491 kts | 36° |
| 2026-05-04 00:43 | -24.20462 | -44.25772 | 33218 ft | 490 kts | 36° |
| 2026-05-04 00:43 | -24.15611 | -44.20506 | 33211 ft | 490 kts | 36° |
| 2026-05-04 00:44 | -24.10764 | -44.15251 | 33213 ft | 490 kts | 36° |
| 2026-05-04 00:44 | -24.05907 | -44.09992 | 33217 ft | 490 kts | 36° |
| 2026-05-04 00:45 | -24.01083 | -44.04773 | 33188 ft | 490 kts | 36° |
| 2026-05-04 00:45 | -23.96229 | -43.99541 | 33212 ft | 490 kts | 36° |
| 2026-05-04 00:46 | -23.91376 | -43.94310 | 33208 ft | 490 kts | 36° |
| 2026-05-04 00:46 | -23.86523 | -43.89080 | 33209 ft | 489 kts | 36° |
| 2026-05-04 00:47 | -23.81668 | -43.83857 | 33198 ft | 489 kts | 36° |
| 2026-05-04 00:47 | -23.76820 | -43.78635 | 33211 ft | 489 kts | 36° |
| 2026-05-04 00:48 | -23.71970 | -43.73420 | 33215 ft | 489 kts | 36° |
| 2026-05-04 00:48 | -23.67120 | -43.68211 | 33211 ft | 489 kts | 36° |
| 2026-05-04 00:49 | -23.62267 | -43.63000 | 33215 ft | 490 kts | 37° |
| 2026-05-04 00:49 | -23.57528 | -43.57637 | 33209 ft | 491 kts | 38° |
| 2026-05-04 00:50 | -23.52844 | -43.52278 | 33211 ft | 491 kts | 38° |
| 2026-05-04 00:50 | -23.48110 | -43.46911 | 33196 ft | 491 kts | 38° |
| 2026-05-04 00:51 | -23.43399 | -43.41502 | 33210 ft | 492 kts | 39° |
| 2026-05-04 00:51 | -23.38698 | -43.36085 | 33205 ft | 492 kts | 38° |
| 2026-05-04 00:52 | -23.33992 | -43.30676 | 33175 ft | 491 kts | 39° |
| 2026-05-04 00:52 | -23.29272 | -43.25287 | 33204 ft | 491 kts | 38° |
| 2026-05-04 00:53 | -23.24490 | -43.19968 | 33205 ft | 491 kts | 38° |
| 2026-05-04 00:53 | -23.19712 | -43.14662 | 33205 ft | 490 kts | 38° |
| 2026-05-04 00:54 | -23.14944 | -43.09362 | 33200 ft | 490 kts | 38° |
| 2026-05-04 00:54 | -23.10213 | -43.04095 | 33205 ft | 489 kts | 38° |
| 2026-05-04 00:55 | -23.05451 | -42.98797 | 33206 ft | 489 kts | 38° |
| 2026-05-04 00:55 | -23.00690 | -42.93513 | 33183 ft | 489 kts | 38° |
| 2026-05-04 00:56 | -22.96192 | -42.87927 | 33203 ft | 493 kts | 46° |
| 2026-05-04 00:56 | -22.92253 | -42.81749 | 33210 ft | 498 kts | 51° |
| 2026-05-04 00:57 | -22.88525 | -42.75392 | 33211 ft | 499 kts | 51° |
| 2026-05-04 00:57 | -22.84489 | -42.69312 | 33192 ft | 493 kts | 41° |
| 2026-05-04 00:58 | -22.79566 | -42.64274 | 33208 ft | 480 kts | 29° |
| 2026-05-04 00:58 | -22.74008 | -42.60455 | 33212 ft | 467 kts | 18° |
| 2026-05-04 00:59 | -22.68147 | -42.57707 | 33223 ft | 460 kts | 13° |
| 2026-05-04 00:59 | -22.62178 | -42.55095 | 33216 ft | 459 kts | 13° |
| 2026-05-04 01:00 | -22.56298 | -42.52494 | 33220 ft | 460 kts | 14° |
| 2026-05-04 01:00 | -22.50373 | -42.49859 | 33230 ft | 460 kts | 14° |
| 2026-05-04 01:01 | -22.44450 | -42.47222 | 33227 ft | 459 kts | 14° |
| 2026-05-04 01:01 | -22.38573 | -42.44611 | 33219 ft | 460 kts | 14° |
| 2026-05-04 01:02 | -22.32654 | -42.41978 | 33223 ft | 460 kts | 14° |
| 2026-05-04 01:02 | -22.26737 | -42.39356 | 33219 ft | 459 kts | 14° |
| 2026-05-04 01:03 | -22.20827 | -42.36750 | 33200 ft | 458 kts | 14° |
| 2026-05-04 01:03 | -22.14914 | -42.34140 | 33210 ft | 459 kts | 14° |
| 2026-05-04 01:04 | -22.09031 | -42.31541 | 33204 ft | 459 kts | 14° |
| 2026-05-04 01:04 | -22.03114 | -42.28927 | 33204 ft | 459 kts | 14° |
| 2026-05-04 01:05 | -21.97205 | -42.26322 | 33198 ft | 460 kts | 14° |
| 2026-05-04 01:05 | -21.91280 | -42.23706 | 33194 ft | 460 kts | 14° |
| 2026-05-04 01:06 | -21.85356 | -42.21062 | 33200 ft | 462 kts | 17° |
| 2026-05-04 01:06 | -21.79597 | -42.17897 | 33196 ft | 467 kts | 21° |
| 2026-05-04 01:07 | -21.73922 | -42.14498 | 33190 ft | 466 kts | 21° |
| 2026-05-04 01:07 | -21.68252 | -42.11100 | 33196 ft | 466 kts | 21° |
| 2026-05-04 01:08 | -21.62587 | -42.07710 | 33195 ft | 466 kts | 21° |
| 2026-05-04 01:08 | -21.56953 | -42.04348 | 33182 ft | 465 kts | 22° |
| 2026-05-04 01:09 | -21.51295 | -42.00970 | 33192 ft | 465 kts | 22° |
| 2026-05-04 01:09 | -21.45641 | -41.97596 | 33195 ft | 465 kts | 22° |
| 2026-05-04 01:10 | -21.39986 | -41.94226 | 33192 ft | 464 kts | 22° |
| 2026-05-04 01:10 | -21.34336 | -41.90864 | 33190 ft | 464 kts | 22° |
| 2026-05-04 01:11 | -21.29643 | -41.88070 | 33187 ft | 464 kts | 22° |
| 2026-05-04 01:11 | -21.23991 | -41.84708 | 33193 ft | 464 kts | 22° |
| 2026-05-04 01:12 | -21.17416 | -41.80809 | 33186 ft | 464 kts | 22° |
| 2026-05-04 01:12 | -21.12685 | -41.78013 | 33199 ft | 463 kts | 22° |
| 2026-05-04 01:13 | -21.07045 | -41.74675 | 33206 ft | 463 kts | 22° |
| 2026-05-04 01:13 | -21.01441 | -41.71359 | 33205 ft | 463 kts | 22° |
| 2026-05-04 01:14 | -20.95795 | -41.68021 | 33205 ft | 464 kts | 22° |
| 2026-05-04 01:14 | -20.90151 | -41.64685 | 33214 ft | 463 kts | 22° |
| 2026-05-04 01:15 | -20.84510 | -41.61355 | 33219 ft | 464 kts | 22° |
| 2026-05-04 01:15 | -20.78862 | -41.58021 | 33216 ft | 463 kts | 22° |
| 2026-05-04 01:16 | -20.73225 | -41.54699 | 33215 ft | 461 kts | 22° |
| 2026-05-04 01:16 | -20.67607 | -41.51387 | 33217 ft | 461 kts | 22° |
| 2026-05-04 01:17 | -20.61984 | -41.48075 | 33213 ft | 461 kts | 22° |
| 2026-05-04 01:17 | -20.56405 | -41.44790 | 33216 ft | 461 kts | 22° |
| 2026-05-04 01:18 | -20.50784 | -41.41489 | 33213 ft | 461 kts | 22° |
| 2026-05-04 01:18 | -20.45170 | -41.38182 | 33212 ft | 460 kts | 22° |
| 2026-05-04 01:19 | -20.39571 | -41.34871 | 33204 ft | 460 kts | 22° |
| 2026-05-04 01:19 | -20.33961 | -41.31553 | 33208 ft | 460 kts | 22° |
| 2026-05-04 01:20 | -20.28357 | -41.28242 | 33197 ft | 460 kts | 22° |
| 2026-05-04 01:20 | -20.22749 | -41.24927 | 33192 ft | 460 kts | 22° |
| 2026-05-04 01:21 | -20.17150 | -41.21623 | 33188 ft | 460 kts | 23° |
| 2026-05-04 01:21 | -20.11573 | -41.18344 | 33166 ft | 461 kts | 22° |
| 2026-05-04 01:22 | -20.05967 | -41.15049 | 33165 ft | 460 kts | 23° |
| 2026-05-04 01:22 | -20.00369 | -41.11755 | 33168 ft | 459 kts | 23° |
| 2026-05-04 01:23 | -19.94775 | -41.08464 | 33166 ft | 459 kts | 23° |
| 2026-05-04 01:23 | -19.89187 | -41.05179 | 33137 ft | 459 kts | 23° |
| 2026-05-04 01:24 | -19.83592 | -41.01906 | 33148 ft | 458 kts | 23° |
| 2026-05-04 01:24 | -19.77997 | -40.98652 | 33142 ft | 459 kts | 23° |
| 2026-05-04 01:25 | -19.72396 | -40.95392 | 33137 ft | 458 kts | 23° |
| 2026-05-04 01:25 | -19.66839 | -40.92155 | 33144 ft | 458 kts | 23° |
| 2026-05-04 01:26 | -19.61245 | -40.88899 | 33136 ft | 458 kts | 22° |
| 2026-05-04 01:26 | -19.55646 | -40.85650 | 33137 ft | 458 kts | 22° |
| 2026-05-04 01:27 | -19.50048 | -40.82423 | 33140 ft | 458 kts | 22° |
| 2026-05-04 01:27 | -19.44450 | -40.79193 | 33131 ft | 458 kts | 22° |
| 2026-05-04 01:28 | -19.38859 | -40.75965 | 33134 ft | 457 kts | 23° |
| 2026-05-04 01:28 | -19.33272 | -40.72740 | 33149 ft | 457 kts | 23° |
| 2026-05-04 01:29 | -19.27687 | -40.69517 | 33156 ft | 457 kts | 23° |
| 2026-05-04 01:29 | -19.22139 | -40.66318 | 33141 ft | 457 kts | 23° |
| 2026-05-04 01:30 | -19.16557 | -40.63107 | 33147 ft | 457 kts | 23° |
| 2026-05-04 01:30 | -19.10972 | -40.59890 | 33145 ft | 456 kts | 23° |
| 2026-05-04 01:31 | -19.05387 | -40.56677 | 33147 ft | 456 kts | 23° |
| 2026-05-04 01:31 | -18.99805 | -40.53471 | 33134 ft | 457 kts | 24° |
| 2026-05-04 01:32 | -18.94220 | -40.50265 | 33140 ft | 457 kts | 24° |
| 2026-05-04 01:32 | -18.88636 | -40.47059 | 33140 ft | 457 kts | 23° |
| 2026-05-04 01:33 | -18.83053 | -40.43856 | 33140 ft | 456 kts | 23° |
| 2026-05-04 01:33 | -18.77503 | -40.40677 | 33127 ft | 456 kts | 24° |
| 2026-05-04 01:34 | -18.71923 | -40.37486 | 33131 ft | 456 kts | 24° |
| 2026-05-04 01:34 | -18.66338 | -40.34288 | 33135 ft | 456 kts | 24° |
| 2026-05-04 01:35 | -18.60754 | -40.31096 | 33137 ft | 456 kts | 24° |
| 2026-05-04 01:35 | -18.55170 | -40.27906 | 33124 ft | 456 kts | 24° |
| 2026-05-04 01:36 | -18.49585 | -40.24720 | 33131 ft | 455 kts | 24° |
| 2026-05-04 01:36 | -18.44052 | -40.21562 | 33132 ft | 455 kts | 24° |
| 2026-05-04 01:37 | -18.38481 | -40.18386 | 33133 ft | 455 kts | 24° |
| 2026-05-04 01:37 | -18.32905 | -40.15210 | 33128 ft | 455 kts | 24° |
| 2026-05-04 01:38 | -18.27337 | -40.12043 | 33127 ft | 454 kts | 24° |
| 2026-05-04 01:38 | -18.21781 | -40.08881 | 33125 ft | 454 kts | 24° |
| 2026-05-04 01:39 | -18.16223 | -40.05719 | 33121 ft | 454 kts | 24° |
| 2026-05-04 01:39 | -18.10666 | -40.02560 | 33124 ft | 454 kts | 24° |
| 2026-05-04 01:40 | -18.05109 | -39.99404 | 33120 ft | 454 kts | 24° |
| 2026-05-04 01:40 | -17.99553 | -39.96250 | 33125 ft | 454 kts | 24° |
| 2026-05-04 01:41 | -17.94034 | -39.93107 | 33121 ft | 454 kts | 24° |
| 2026-05-04 01:41 | -17.88489 | -39.89943 | 33122 ft | 454 kts | 24° |
| 2026-05-04 01:42 | -17.82938 | -39.86779 | 33114 ft | 454 kts | 25° |
| 2026-05-04 01:42 | -17.77389 | -39.83613 | 33117 ft | 454 kts | 25° |
| 2026-05-04 01:43 | -17.71838 | -39.80448 | 33121 ft | 454 kts | 25° |
| 2026-05-04 01:43 | -17.66289 | -39.77286 | 33121 ft | 453 kts | 25° |
| 2026-05-04 01:44 | -17.60739 | -39.74129 | 33113 ft | 453 kts | 25° |
| 2026-05-04 01:44 | -17.55198 | -39.70977 | 33117 ft | 453 kts | 25° |
| 2026-05-04 01:45 | -17.49657 | -39.67826 | 33118 ft | 453 kts | 25° |
| 2026-05-04 01:45 | -17.41347 | -39.63105 | 33115 ft | 453 kts | 25° |
| 2026-05-04 01:46 | -17.35839 | -39.59979 | 33115 ft | 453 kts | 25° |
| 2026-05-04 01:46 | -17.30298 | -39.56837 | 33113 ft | 453 kts | 25° |
| 2026-05-04 01:47 | -17.24754 | -39.53695 | 33114 ft | 453 kts | 25° |
| 2026-05-04 01:47 | -17.19214 | -39.50556 | 33115 ft | 452 kts | 25° |
| 2026-05-04 01:48 | -17.13674 | -39.47420 | 33106 ft | 452 kts | 25° |
| 2026-05-04 01:48 | -17.08141 | -39.44286 | 33107 ft | 452 kts | 25° |
| 2026-05-04 01:49 | -17.02638 | -39.41175 | 33108 ft | 452 kts | 25° |
| 2026-05-04 01:49 | -16.97104 | -39.38060 | 33109 ft | 452 kts | 25° |
| 2026-05-04 01:50 | -16.91564 | -39.34940 | 33103 ft | 452 kts | 25° |
| 2026-05-04 01:50 | -16.86025 | -39.31820 | 33108 ft | 452 kts | 25° |
| 2026-05-04 01:51 | -16.80495 | -39.28702 | 33103 ft | 452 kts | 25° |
| 2026-05-04 01:51 | -16.74960 | -39.25584 | 33103 ft | 452 kts | 25° |
| 2026-05-04 01:52 | -16.69430 | -39.22471 | 33102 ft | 452 kts | 25° |
| 2026-05-04 01:52 | -16.63896 | -39.19359 | 33098 ft | 451 kts | 25° |
| 2026-05-04 01:53 | -16.58409 | -39.16272 | 33097 ft | 451 kts | 25° |
| 2026-05-04 01:53 | -16.52886 | -39.13165 | 33095 ft | 451 kts | 25° |
| 2026-05-04 01:54 | -16.47366 | -39.10062 | 33095 ft | 450 kts | 25° |
| 2026-05-04 01:54 | -16.41833 | -39.06999 | 33093 ft | 450 kts | 24° |
| 2026-05-04 01:55 | -16.36248 | -39.04058 | 33094 ft | 449 kts | 24° |
| 2026-05-04 01:55 | -16.30671 | -39.01112 | 33095 ft | 450 kts | 24° |
| 2026-05-04 01:56 | -16.25094 | -38.98156 | 33094 ft | 449 kts | 24° |
| 2026-05-04 01:56 | -16.19571 | -38.95182 | 33093 ft | 450 kts | 25° |
| 2026-05-04 01:57 | -16.14033 | -38.92132 | 33091 ft | 450 kts | 25° |
| 2026-05-04 01:57 | -16.08501 | -38.89085 | 33092 ft | 450 kts | 25° |
| 2026-05-04 01:58 | -16.02964 | -38.86041 | 33092 ft | 450 kts | 25° |
| 2026-05-04 01:58 | -15.97430 | -38.83001 | 33090 ft | 450 kts | 25° |
| 2026-05-04 01:59 | -15.91892 | -38.79961 | 33088 ft | 450 kts | 25° |
| 2026-05-04 01:59 | -15.86360 | -38.76925 | 33089 ft | 449 kts | 25° |
| 2026-05-04 02:00 | -15.80826 | -38.73899 | 33092 ft | 449 kts | 25° |
| 2026-05-04 02:00 | -15.75289 | -38.70877 | 33089 ft | 449 kts | 25° |
| 2026-05-04 02:01 | -15.69753 | -38.67852 | 33086 ft | 449 kts | 25° |
| 2026-05-04 02:01 | -15.64227 | -38.64833 | 33080 ft | 448 kts | 26° |
| 2026-05-04 02:02 | -15.58703 | -38.61813 | 33081 ft | 448 kts | 26° |
| 2026-05-04 02:02 | -15.53216 | -38.58817 | 33081 ft | 448 kts | 25° |
| 2026-05-04 02:03 | -15.47692 | -38.55803 | 33082 ft | 448 kts | 25° |
| 2026-05-04 02:03 | -15.42171 | -38.52791 | 33079 ft | 448 kts | 26° |
| 2026-05-04 02:04 | -15.36652 | -38.49778 | 33082 ft | 448 kts | 26° |
| 2026-05-04 02:04 | -15.31137 | -38.46769 | 33078 ft | 448 kts | 26° |
| 2026-05-04 02:05 | -15.25653 | -38.43784 | 33077 ft | 448 kts | 25° |
| 2026-05-04 02:05 | -15.20138 | -38.40782 | 33078 ft | 447 kts | 26° |
| 2026-05-04 02:06 | -15.14630 | -38.37784 | 33077 ft | 447 kts | 26° |
| 2026-05-04 02:06 | -15.09120 | -38.34788 | 33078 ft | 447 kts | 25° |
| 2026-05-04 02:07 | -15.04543 | -38.32299 | 33079 ft | 447 kts | 26° |
| 2026-05-04 02:07 | -14.99037 | -38.29312 | 33079 ft | 447 kts | 25° |
| 2026-05-04 02:08 | -14.93526 | -38.26333 | 33078 ft | 447 kts | 25° |
| 2026-05-04 02:08 | -14.88016 | -38.23352 | 33074 ft | 447 kts | 26° |
| 2026-05-04 02:09 | -14.82507 | -38.20366 | 33077 ft | 447 kts | 26° |
| 2026-05-04 02:09 | -14.76996 | -38.17384 | 33077 ft | 447 kts | 25° |
| 2026-05-04 02:10 | -14.71489 | -38.14405 | 33075 ft | 447 kts | 25° |
| 2026-05-04 02:10 | -14.65975 | -38.11426 | 33075 ft | 446 kts | 25° |
| 2026-05-04 02:11 | -14.60510 | -38.08471 | 33072 ft | 446 kts | 26° |
| 2026-05-04 02:11 | -14.55005 | -38.05500 | 33070 ft | 446 kts | 25° |
| 2026-05-04 02:12 | -14.49503 | -38.02530 | 33071 ft | 446 kts | 25° |
| 2026-05-04 02:12 | -14.44001 | -37.99559 | 33068 ft | 446 kts | 25° |
| 2026-05-04 02:13 | -14.38496 | -37.96593 | 33065 ft | 446 kts | 26° |
| 2026-05-04 02:13 | -14.32999 | -37.93630 | 33066 ft | 446 kts | 26° |
| 2026-05-04 02:14 | -14.27502 | -37.90667 | 33065 ft | 446 kts | 26° |
| 2026-05-04 02:14 | -14.22009 | -37.87709 | 33066 ft | 445 kts | 25° |
| 2026-05-04 02:15 | -14.16518 | -37.84756 | 33064 ft | 446 kts | 26° |
| 2026-05-04 02:15 | -14.11016 | -37.81793 | 33066 ft | 446 kts | 26° |
| 2026-05-04 02:16 | -14.05546 | -37.78852 | 33062 ft | 446 kts | 25° |
| 2026-05-04 02:16 | -14.00037 | -37.75897 | 33061 ft | 446 kts | 25° |
| 2026-05-04 02:17 | -13.94536 | -37.72945 | 33064 ft | 446 kts | 25° |
| 2026-05-04 02:17 | -13.89030 | -37.69989 | 33058 ft | 446 kts | 26° |
| 2026-05-04 02:18 | -13.83522 | -37.67038 | 33059 ft | 446 kts | 26° |
| 2026-05-04 02:18 | -13.78015 | -37.64088 | 33060 ft | 445 kts | 25° |
| 2026-05-04 02:19 | -13.72508 | -37.61137 | 33057 ft | 445 kts | 26° |
| 2026-05-04 02:19 | -13.67044 | -37.58209 | 33058 ft | 446 kts | 26° |
| 2026-05-04 02:20 | -13.61535 | -37.55262 | 33055 ft | 446 kts | 26° |
| 2026-05-04 02:20 | -13.56029 | -37.52313 | 33055 ft | 446 kts | 26° |
| 2026-05-04 02:21 | -13.50518 | -37.49365 | 33052 ft | 447 kts | 25° |
| 2026-05-04 02:21 | -13.45005 | -37.46421 | 33048 ft | 446 kts | 25° |
| 2026-05-04 02:22 | -13.39496 | -37.43480 | 33050 ft | 446 kts | 26° |
| 2026-05-04 02:22 | -13.33988 | -37.40537 | 33047 ft | 446 kts | 26° |
| 2026-05-04 02:23 | -13.28477 | -37.37597 | 33049 ft | 446 kts | 25° |
| 2026-05-04 02:23 | -13.22973 | -37.34660 | 33045 ft | 446 kts | 25° |
| 2026-05-04 02:24 | -13.17468 | -37.31723 | 33044 ft | 446 kts | 26° |
| 2026-05-04 02:24 | -13.11997 | -37.28804 | 33047 ft | 446 kts | 26° |
| 2026-05-04 02:25 | -13.06489 | -37.25877 | 33046 ft | 445 kts | 26° |
| 2026-05-04 02:25 | -13.00979 | -37.22953 | 33047 ft | 445 kts | 25° |
| 2026-05-04 02:26 | -12.95477 | -37.20031 | 33043 ft | 445 kts | 25° |
| 2026-05-04 02:26 | -12.89968 | -37.17106 | 33044 ft | 445 kts | 26° |
| 2026-05-04 02:27 | -12.84463 | -37.14182 | 33044 ft | 445 kts | 26° |
| 2026-05-04 02:27 | -12.78967 | -37.11259 | 33043 ft | 445 kts | 26° |
| 2026-05-04 02:28 | -12.73464 | -37.08337 | 33044 ft | 445 kts | 26° |
| 2026-05-04 02:28 | -12.67965 | -37.05421 | 33042 ft | 445 kts | 26° |
| 2026-05-04 02:29 | -12.62467 | -37.02500 | 33044 ft | 445 kts | 26° |
| 2026-05-04 02:29 | -12.56971 | -36.99587 | 33040 ft | 445 kts | 26° |
| 2026-05-04 02:30 | -12.51474 | -36.96678 | 33044 ft | 444 kts | 26° |
| 2026-05-04 02:30 | -12.46018 | -36.93785 | 33040 ft | 444 kts | 25° |
| 2026-05-04 02:31 | -12.40525 | -36.90873 | 33037 ft | 444 kts | 25° |
| 2026-05-04 02:31 | -12.35034 | -36.87969 | 33037 ft | 444 kts | 25° |
| 2026-05-04 02:32 | -12.29538 | -36.85069 | 33037 ft | 444 kts | 26° |
| 2026-05-04 02:32 | -12.24043 | -36.82170 | 33038 ft | 444 kts | 26° |
| 2026-05-04 02:33 | -12.18550 | -36.79273 | 33035 ft | 444 kts | 25° |
| 2026-05-04 02:33 | -12.13054 | -36.76375 | 33035 ft | 444 kts | 26° |
| 2026-05-04 02:34 | -12.07560 | -36.73472 | 33035 ft | 444 kts | 26° |
| 2026-05-04 02:34 | -12.02069 | -36.70578 | 33036 ft | 444 kts | 26° |
| 2026-05-04 02:35 | -11.96583 | -36.67686 | 33035 ft | 444 kts | 26° |
| 2026-05-04 02:35 | -11.91094 | -36.64794 | 33032 ft | 444 kts | 26° |
| 2026-05-04 02:36 | -11.85633 | -36.61916 | 33029 ft | 444 kts | 26° |
| 2026-05-04 02:36 | -11.80144 | -36.59027 | 33030 ft | 444 kts | 26° |
| 2026-05-04 02:37 | -11.74647 | -36.56131 | 33030 ft | 444 kts | 26° |
| 2026-05-04 02:37 | -11.69153 | -36.53239 | 33029 ft | 445 kts | 26° |
| 2026-05-04 02:38 | -11.63653 | -36.50349 | 33029 ft | 444 kts | 26° |
| 2026-05-04 02:38 | -11.58161 | -36.47464 | 33026 ft | 444 kts | 25° |
| 2026-05-04 02:39 | -11.52665 | -36.44576 | 33029 ft | 444 kts | 25° |
| 2026-05-04 02:39 | -11.47174 | -36.41691 | 33029 ft | 444 kts | 26° |
| 2026-05-04 02:40 | -11.41714 | -36.38827 | 33026 ft | 444 kts | 26° |
| 2026-05-04 02:40 | -11.36211 | -36.35939 | 33027 ft | 444 kts | 26° |
| 2026-05-04 02:41 | -11.30719 | -36.33056 | 33025 ft | 444 kts | 26° |
| 2026-05-04 02:41 | -11.25225 | -36.30174 | 33024 ft | 444 kts | 25° |
| 2026-05-04 02:42 | -11.19729 | -36.27287 | 33023 ft | 444 kts | 25° |
| 2026-05-04 02:42 | -11.14237 | -36.24411 | 33022 ft | 444 kts | 25° |
| 2026-05-04 02:43 | -11.08837 | -36.21350 | 33021 ft | 444 kts | 28° |
| 2026-05-04 02:43 | -11.03475 | -36.18210 | 33022 ft | 444 kts | 28° |
| 2026-05-04 02:44 | -10.98117 | -36.15070 | 33022 ft | 444 kts | 28° |
| 2026-05-04 02:44 | -10.92788 | -36.11944 | 33019 ft | 445 kts | 28° |
| 2026-05-04 02:45 | -10.87413 | -36.08799 | 33020 ft | 446 kts | 28° |
| 2026-05-04 02:45 | -10.82034 | -36.05652 | 33021 ft | 446 kts | 28° |
| 2026-05-04 02:46 | -10.76656 | -36.02506 | 33020 ft | 446 kts | 28° |
| 2026-05-04 02:46 | -10.71280 | -35.99363 | 33015 ft | 445 kts | 28° |
| 2026-05-04 02:47 | -10.65908 | -35.96217 | 33015 ft | 447 kts | 27° |
| 2026-05-04 02:47 | -10.60504 | -35.93062 | 33016 ft | 448 kts | 27° |
| 2026-05-04 02:48 | -10.55101 | -35.89907 | 33014 ft | 448 kts | 27° |
| 2026-05-04 02:48 | -10.49694 | -35.86749 | 33013 ft | 448 kts | 27° |
| 2026-05-04 02:49 | -10.44292 | -35.83592 | 33013 ft | 448 kts | 27° |
| 2026-05-04 02:49 | -10.38918 | -35.80454 | 33011 ft | 449 kts | 27° |
| 2026-05-04 02:50 | -10.33489 | -35.77297 | 33013 ft | 450 kts | 27° |
| 2026-05-04 02:50 | -10.28060 | -35.74140 | 33014 ft | 450 kts | 27° |
| 2026-05-04 02:51 | -10.22632 | -35.70980 | 33014 ft | 449 kts | 27° |
| 2026-05-04 02:51 | -10.17208 | -35.67822 | 33013 ft | 449 kts | 27° |
| 2026-05-04 02:52 | -10.11775 | -35.64660 | 33008 ft | 449 kts | 27° |
| 2026-05-04 02:52 | -10.06345 | -35.61501 | 33012 ft | 450 kts | 27° |
| 2026-05-04 02:53 | -10.00950 | -35.58363 | 33013 ft | 450 kts | 27° |
| 2026-05-04 02:53 | -9.95521 | -35.55207 | 33010 ft | 450 kts | 27° |
| 2026-05-04 02:54 | -9.90083 | -35.52046 | 33011 ft | 450 kts | 27° |
| 2026-05-04 02:54 | -9.84654 | -35.48892 | 33011 ft | 450 kts | 27° |
| 2026-05-04 02:55 | -9.76508 | -35.44163 | 33008 ft | 449 kts | 27° |
| 2026-05-04 02:56 | -9.71082 | -35.41013 | 33008 ft | 449 kts | 27° |
| 2026-05-04 02:56 | -9.65651 | -35.37861 | 33008 ft | 449 kts | 27° |
| 2026-05-04 02:57 | -9.60223 | -35.34711 | 33002 ft | 449 kts | 27° |
| 2026-05-04 02:57 | -9.54799 | -35.31565 | 33003 ft | 449 kts | 27° |
| 2026-05-04 02:58 | -9.49412 | -35.28443 | 33003 ft | 449 kts | 27° |
| 2026-05-04 02:58 | -9.43980 | -35.25296 | 33003 ft | 449 kts | 27° |
| 2026-05-04 02:59 | -9.38551 | -35.22151 | 33000 ft | 449 kts | 27° |
| 2026-05-04 02:59 | -9.33121 | -35.19006 | 32999 ft | 449 kts | 27° |
| 2026-05-04 03:00 | -9.27693 | -35.15866 | 32997 ft | 449 kts | 27° |
| 2026-05-04 03:00 | -9.23186 | -35.13257 | 32998 ft | 449 kts | 27° |
| 2026-05-04 03:01 | -9.16877 | -35.09602 | 32999 ft | 449 kts | 27° |
| 2026-05-04 03:01 | -9.12323 | -35.06966 | 32997 ft | 448 kts | 27° |
| 2026-05-04 03:02 | -9.06884 | -35.03868 | 32994 ft | 448 kts | 25° |
| 2026-05-04 03:02 | -9.01229 | -35.01254 | 32995 ft | 446 kts | 20° |
| 2026-05-04 03:03 | -8.95481 | -34.98871 | 32994 ft | 447 kts | 20° |
| 2026-05-04 03:03 | -8.89725 | -34.96479 | 32994 ft | 447 kts | 20° |
| 2026-05-04 03:04 | -8.84001 | -34.94097 | 32995 ft | 447 kts | 20° |
| 2026-05-04 03:04 | -8.78246 | -34.91702 | 32991 ft | 447 kts | 20° |
| 2026-05-04 03:05 | -8.72486 | -34.89305 | 32993 ft | 447 kts | 20° |
| 2026-05-04 03:05 | -8.66723 | -34.86912 | 32992 ft | 448 kts | 20° |
| 2026-05-04 03:06 | -8.60957 | -34.84513 | 32989 ft | 448 kts | 20° |
| 2026-05-04 03:06 | -8.55195 | -34.82117 | 32983 ft | 448 kts | 20° |
| 2026-05-04 03:07 | -8.49431 | -34.79721 | 32987 ft | 448 kts | 20° |
| 2026-05-04 03:07 | -8.43670 | -34.77327 | 32987 ft | 448 kts | 20° |
| 2026-05-04 03:08 | -8.37948 | -34.74951 | 32985 ft | 447 kts | 20° |
| 2026-05-04 03:08 | -8.32202 | -34.72563 | 32983 ft | 447 kts | 20° |
| 2026-05-04 03:09 | -8.26446 | -34.70170 | 32982 ft | 447 kts | 20° |
| 2026-05-04 03:09 | -8.20690 | -34.67777 | 32980 ft | 447 kts | 20° |
| 2026-05-04 03:10 | -8.14936 | -34.65386 | 32979 ft | 447 kts | 21° |
| 2026-05-04 03:10 | -8.09325 | -34.62647 | 32978 ft | 448 kts | 26° |
| 2026-05-04 03:11 | -8.03825 | -34.59672 | 32979 ft | 448 kts | 27° |
| 2026-05-04 03:11 | -7.98331 | -34.56693 | 32978 ft | 448 kts | 26° |
| 2026-05-04 03:12 | -7.92868 | -34.53737 | 32978 ft | 448 kts | 26° |
| 2026-05-04 03:12 | -7.87371 | -34.50764 | 32972 ft | 448 kts | 27° |
| 2026-05-04 03:13 | -7.81878 | -34.47792 | 32969 ft | 448 kts | 27° |
| 2026-05-04 03:13 | -7.76383 | -34.44823 | 32971 ft | 447 kts | 27° |
| 2026-05-04 03:14 | -7.70863 | -34.41929 | 32970 ft | 447 kts | 26° |
| 2026-05-04 03:14 | -7.65358 | -34.39083 | 32969 ft | 447 kts | 25° |
| 2026-05-04 03:15 | -7.59793 | -34.36196 | 32970 ft | 447 kts | 26° |
| 2026-05-04 03:15 | -7.54269 | -34.33326 | 32969 ft | 447 kts | 25° |
| 2026-05-04 03:16 | -7.48783 | -34.30475 | 32966 ft | 446 kts | 26° |
| 2026-05-04 03:16 | -7.43268 | -34.27608 | 32967 ft | 446 kts | 25° |
| 2026-05-04 03:17 | -7.37750 | -34.24740 | 32964 ft | 446 kts | 26° |
| 2026-05-04 03:17 | -7.32236 | -34.21875 | 32965 ft | 446 kts | 26° |
| 2026-05-04 03:18 | -7.26720 | -34.19011 | 32962 ft | 446 kts | 26° |
| 2026-05-04 03:18 | -7.21211 | -34.16151 | 32962 ft | 446 kts | 26° |
| 2026-05-04 03:19 | -7.15703 | -34.13292 | 32961 ft | 446 kts | 26° |
| 2026-05-04 03:19 | -7.10224 | -34.10450 | 32961 ft | 446 kts | 26° |
| 2026-05-04 03:20 | -7.04709 | -34.07588 | 32958 ft | 446 kts | 25° |
| 2026-05-04 03:20 | -6.99198 | -34.04730 | 32959 ft | 445 kts | 26° |
| 2026-05-04 03:21 | -6.93686 | -34.01871 | 32958 ft | 446 kts | 25° |
| 2026-05-04 03:21 | -6.88172 | -33.99011 | 32954 ft | 445 kts | 25° |
| 2026-05-04 03:22 | -6.82662 | -33.96156 | 32960 ft | 445 kts | 25° |
| 2026-05-04 03:22 | -6.77152 | -33.93301 | 32954 ft | 445 kts | 25° |
| 2026-05-04 03:23 | -6.71642 | -33.90446 | 32956 ft | 445 kts | 25° |
| 2026-05-04 03:23 | -6.66130 | -33.87592 | 32953 ft | 445 kts | 25° |
| 2026-05-04 03:24 | -6.60657 | -33.84758 | 32953 ft | 445 kts | 25° |
| 2026-05-04 03:24 | -6.55151 | -33.81909 | 32949 ft | 445 kts | 26° |
| 2026-05-04 03:25 | -6.49639 | -33.79056 | 32950 ft | 445 kts | 26° |
| 2026-05-04 03:25 | -6.44125 | -33.76203 | 32949 ft | 445 kts | 26° |
| 2026-05-04 03:26 | -6.38617 | -33.73355 | 32952 ft | 445 kts | 25° |
| 2026-05-04 03:26 | -6.33110 | -33.70507 | 32953 ft | 445 kts | 26° |
| 2026-05-04 03:27 | -6.27608 | -33.67667 | 32946 ft | 444 kts | 26° |
| 2026-05-04 03:27 | -6.22138 | -33.64839 | 32950 ft | 444 kts | 26° |
| 2026-05-04 03:28 | -6.16639 | -33.61995 | 32946 ft | 444 kts | 26° |
| 2026-05-04 03:28 | -6.11141 | -33.59154 | 32947 ft | 444 kts | 26° |
| 2026-05-04 03:29 | -6.05640 | -33.56314 | 32948 ft | 444 kts | 26° |
| 2026-05-04 03:29 | -6.00135 | -33.53474 | 32945 ft | 445 kts | 26° |
| 2026-05-04 03:30 | -5.94624 | -33.50628 | 32948 ft | 445 kts | 26° |
| 2026-05-04 03:30 | -5.89113 | -33.47781 | 32946 ft | 445 kts | 26° |
| 2026-05-04 03:31 | -5.83601 | -33.44936 | 32947 ft | 445 kts | 26° |
| 2026-05-04 03:31 | -5.78089 | -33.42093 | 32947 ft | 445 kts | 26° |
| 2026-05-04 03:32 | -5.72578 | -33.39250 | 32943 ft | 445 kts | 26° |
| 2026-05-04 03:32 | -5.67099 | -33.36424 | 32943 ft | 446 kts | 26° |
| 2026-05-04 03:33 | -5.61579 | -33.33579 | 32943 ft | 446 kts | 26° |
| 2026-05-04 03:33 | -5.56055 | -33.30732 | 32943 ft | 446 kts | 26° |
| 2026-05-04 03:34 | -5.50533 | -33.27886 | 32942 ft | 446 kts | 26° |
| 2026-05-04 03:34 | -5.45015 | -33.25042 | 32942 ft | 446 kts | 26° |
| 2026-05-04 03:35 | -5.39498 | -33.22201 | 32944 ft | 446 kts | 26° |
| 2026-05-04 03:35 | -5.33978 | -33.19358 | 32942 ft | 446 kts | 26° |
| 2026-05-04 03:36 | -5.28463 | -33.16518 | 32938 ft | 446 kts | 26° |
| 2026-05-04 03:36 | -5.22981 | -33.13694 | 32941 ft | 445 kts | 26° |
| 2026-05-04 03:37 | -5.17469 | -33.10857 | 32941 ft | 445 kts | 26° |
| 2026-05-04 03:37 | -5.11951 | -33.08017 | 32942 ft | 445 kts | 26° |
| 2026-05-04 03:38 | -5.06472 | -33.05199 | 32939 ft | 446 kts | 26° |
| 2026-05-04 03:38 | -5.00955 | -33.02359 | 32940 ft | 446 kts | 26° |
| 2026-05-04 03:39 | -4.95436 | -32.99520 | 32941 ft | 446 kts | 26° |
| 2026-05-04 03:39 | -4.89920 | -32.96682 | 32940 ft | 446 kts | 26° |
| 2026-05-04 03:40 | -4.84400 | -32.93843 | 32940 ft | 446 kts | 26° |
| 2026-05-04 03:40 | -4.78883 | -32.91005 | 32938 ft | 446 kts | 26° |
| 2026-05-04 03:41 | -4.73366 | -32.88167 | 32940 ft | 445 kts | 26° |
| 2026-05-04 03:41 | -4.67901 | -32.85353 | 32940 ft | 445 kts | 26° |
| 2026-05-04 03:42 | -4.62393 | -32.82520 | 32938 ft | 445 kts | 26° |
| 2026-05-04 03:42 | -4.56887 | -32.79693 | 32936 ft | 444 kts | 26° |
| 2026-05-04 03:43 | -4.51384 | -32.76865 | 32939 ft | 444 kts | 26° |
| 2026-05-04 03:43 | -4.45879 | -32.74033 | 32939 ft | 445 kts | 26° |
| 2026-05-04 03:44 | -4.40375 | -32.71197 | 32936 ft | 445 kts | 26° |
| 2026-05-04 03:44 | -4.34872 | -32.68361 | 32935 ft | 444 kts | 26° |
| 2026-05-04 03:45 | -4.29370 | -32.65527 | 32934 ft | 445 kts | 26° |
| 2026-05-04 03:45 | -4.23870 | -32.62694 | 32935 ft | 444 kts | 26° |
| 2026-05-04 03:46 | -4.18371 | -32.59862 | 32937 ft | 444 kts | 26° |
| 2026-05-04 03:46 | -4.12880 | -32.57036 | 32934 ft | 444 kts | 26° |
| 2026-05-04 03:47 | -4.07426 | -32.54227 | 32935 ft | 443 kts | 26° |
| 2026-05-04 03:47 | -4.01937 | -32.51399 | 32931 ft | 443 kts | 26° |
| 2026-05-04 03:48 | -3.96450 | -32.48572 | 32930 ft | 443 kts | 26° |
| 2026-05-04 03:48 | -3.90959 | -32.45742 | 32931 ft | 443 kts | 26° |
| 2026-05-04 03:49 | -3.85466 | -32.42914 | 32928 ft | 443 kts | 27° |
| 2026-05-04 03:49 | -3.79995 | -32.40048 | 32929 ft | 444 kts | 27° |
| 2026-05-04 03:50 | -3.74530 | -32.37158 | 32930 ft | 444 kts | 27° |
| 2026-05-04 03:50 | -3.69068 | -32.34272 | 32930 ft | 444 kts | 27° |
| 2026-05-04 03:51 | -3.63606 | -32.31387 | 32929 ft | 443 kts | 27° |
| 2026-05-04 03:51 | -3.58148 | -32.28506 | 32929 ft | 443 kts | 27° |
| 2026-05-04 03:52 | -3.52689 | -32.25623 | 32932 ft | 443 kts | 27° |
| 2026-05-04 03:52 | -3.47268 | -32.22760 | 32932 ft | 443 kts | 27° |
| 2026-05-04 03:53 | -3.41776 | -32.19860 | 32930 ft | 443 kts | 27° |
| 2026-05-04 03:53 | -3.36360 | -32.16998 | 32929 ft | 443 kts | 27° |
| 2026-05-04 03:54 | -3.30901 | -32.14115 | 32929 ft | 443 kts | 27° |
| 2026-05-04 03:54 | -3.25417 | -32.11300 | 32930 ft | 443 kts | 25° |
| 2026-05-04 03:55 | -3.19853 | -32.08637 | 32930 ft | 441 kts | 26° |
| 2026-05-04 03:55 | -3.15249 | -32.06429 | 32930 ft | 441 kts | 26° |
| 2026-05-04 03:56 | -3.09706 | -32.03764 | 32933 ft | 441 kts | 26° |
| 2026-05-04 03:56 | -3.04154 | -32.01093 | 32931 ft | 441 kts | 26° |
| 2026-05-04 03:57 | -2.98613 | -31.98428 | 32929 ft | 441 kts | 26° |
| 2026-05-04 03:57 | -2.93074 | -31.95763 | 32926 ft | 442 kts | 26° |
| 2026-05-04 03:58 | -2.84759 | -31.91764 | 32927 ft | 442 kts | 26° |
| 2026-05-04 03:58 | -2.79220 | -31.89100 | 32927 ft | 442 kts | 26° |
| 2026-05-04 03:59 | -2.73676 | -31.86434 | 32923 ft | 442 kts | 26° |
| 2026-05-04 03:59 | -2.68137 | -31.83770 | 32924 ft | 442 kts | 26° |
| 2026-05-04 04:00 | -2.62636 | -31.81125 | 32925 ft | 442 kts | 26° |
| 2026-05-04 04:00 | -2.57085 | -31.78457 | 32927 ft | 442 kts | 26° |
| 2026-05-04 04:01 | -2.51534 | -31.75789 | 32926 ft | 442 kts | 26° |
| 2026-05-04 04:01 | -2.45988 | -31.73123 | 32924 ft | 442 kts | 26° |
| 2026-05-04 04:02 | -2.40442 | -31.70457 | 32925 ft | 442 kts | 26° |
| 2026-05-04 04:02 | -2.34893 | -31.67791 | 32925 ft | 442 kts | 26° |
| 2026-05-04 04:03 | -2.29377 | -31.65140 | 32924 ft | 442 kts | 26° |
| 2026-05-04 04:03 | -2.23832 | -31.62478 | 32927 ft | 442 kts | 26° |
| 2026-05-04 04:04 | -2.18283 | -31.59811 | 32926 ft | 442 kts | 26° |
| 2026-05-04 04:04 | -2.12744 | -31.57149 | 32925 ft | 442 kts | 26° |
| 2026-05-04 04:05 | -2.07206 | -31.54489 | 32925 ft | 442 kts | 26° |
| 2026-05-04 04:05 | -2.01663 | -31.51827 | 32923 ft | 442 kts | 26° |
| 2026-05-04 04:06 | -1.96120 | -31.49164 | 32922 ft | 442 kts | 26° |
| 2026-05-04 04:06 | -1.90571 | -31.46501 | 32924 ft | 442 kts | 26° |
| 2026-05-04 04:07 | -1.85019 | -31.43834 | 32921 ft | 442 kts | 26° |
| 2026-05-04 04:07 | -1.79470 | -31.41169 | 32920 ft | 442 kts | 26° |
| 2026-05-04 04:08 | -1.73926 | -31.38507 | 33103 ft | 442 kts | 26° |
| 2026-05-04 04:08 | -1.71155 | -31.37176 | 33349 ft | 442 kts | 26° |
| 2026-05-04 04:08 | -1.68386 | -31.35847 | 33606 ft | 442 kts | 26° |
| 2026-05-04 04:09 | -1.65615 | -31.34517 | 33870 ft | 442 kts | 26° |
| 2026-05-04 04:09 | -1.62882 | -31.33204 | 34098 ft | 441 kts | 26° |
| 2026-05-04 04:09 | -1.60113 | -31.31875 | 34324 ft | 441 kts | 26° |
| 2026-05-04 04:09 | -1.57348 | -31.30548 | 34555 ft | 441 kts | 26° |
| 2026-05-04 04:10 | -1.54577 | -31.29218 | 34732 ft | 442 kts | 26° |
| 2026-05-04 04:10 | -1.51803 | -31.27886 | 34890 ft | 444 kts | 26° |
| 2026-05-04 04:10 | -1.46157 | -31.25176 | 34922 ft | 455 kts | 26° |
| 2026-05-04 04:11 | -1.40416 | -31.22421 | 34919 ft | 458 kts | 26° |
| 2026-05-04 04:11 | -1.34663 | -31.19661 | 34918 ft | 459 kts | 26° |
| 2026-05-04 04:12 | -1.28945 | -31.16917 | 34919 ft | 459 kts | 26° |
| 2026-05-04 04:12 | -1.23190 | -31.14156 | 34918 ft | 459 kts | 26° |
| 2026-05-04 04:13 | -1.17438 | -31.11396 | 34917 ft | 459 kts | 26° |
| 2026-05-04 04:13 | -1.11678 | -31.08632 | 34917 ft | 459 kts | 26° |
| 2026-05-04 04:14 | -1.05926 | -31.05872 | 34913 ft | 459 kts | 26° |
| 2026-05-04 04:14 | -1.00171 | -31.03111 | 34914 ft | 459 kts | 26° |
| 2026-05-04 04:15 | -0.94413 | -31.00349 | 34918 ft | 459 kts | 26° |
| 2026-05-04 04:15 | -0.88645 | -30.97581 | 34918 ft | 460 kts | 26° |
| 2026-05-04 04:16 | -0.82913 | -30.94830 | 34916 ft | 460 kts | 26° |
| 2026-05-04 04:16 | -0.77135 | -30.92059 | 34916 ft | 460 kts | 26° |
| 2026-05-04 04:17 | -0.71360 | -30.89288 | 34913 ft | 460 kts | 26° |
| 2026-05-04 04:17 | -0.65587 | -30.86519 | 34913 ft | 460 kts | 26° |
| 2026-05-04 04:18 | -0.59813 | -30.83748 | 34916 ft | 460 kts | 26° |
| 2026-05-04 04:18 | -0.54037 | -30.80978 | 34917 ft | 460 kts | 26° |
| 2026-05-04 04:19 | -0.48264 | -30.78209 | 34915 ft | 460 kts | 26° |
| 2026-05-04 04:19 | -0.42489 | -30.75439 | 34916 ft | 460 kts | 26° |
| 2026-05-04 04:20 | -0.36717 | -30.72671 | 34914 ft | 460 kts | 26° |
| 2026-05-04 04:20 | -0.30975 | -30.69916 | 34916 ft | 460 kts | 26° |
| 2026-05-04 04:21 | -0.25203 | -30.67149 | 34914 ft | 461 kts | 26° |
| 2026-05-04 04:21 | -0.19407 | -30.64368 | 34914 ft | 461 kts | 26° |
| 2026-05-04 04:22 | -0.13621 | -30.61593 | 34913 ft | 461 kts | 26° |
| 2026-05-04 04:22 | -0.07838 | -30.58819 | 34914 ft | 461 kts | 26° |
| 2026-05-04 04:23 | -0.02089 | -30.56062 | 34916 ft | 461 kts | 26° |
| 2026-05-04 04:23 | 0.03725 | -30.53271 | 34916 ft | 459 kts | 26° |
| 2026-05-04 04:24 | 0.09443 | -30.50529 | 34914 ft | 459 kts | 26° |
| 2026-05-04 04:24 | 0.15198 | -30.47770 | 34914 ft | 459 kts | 26° |
| 2026-05-04 04:25 | 0.20952 | -30.45010 | 34915 ft | 458 kts | 26° |
| 2026-05-04 04:25 | 0.26702 | -30.42252 | 34914 ft | 458 kts | 26° |
| 2026-05-04 04:26 | 0.32456 | -30.39492 | 34912 ft | 458 kts | 26° |
| 2026-05-04 04:26 | 0.38212 | -30.36729 | 34912 ft | 459 kts | 26° |
| 2026-05-04 04:27 | 0.43972 | -30.33967 | 34915 ft | 459 kts | 26° |
| 2026-05-04 04:27 | 0.49731 | -30.31206 | 34914 ft | 459 kts | 26° |
| 2026-05-04 04:28 | 0.55488 | -30.28444 | 34911 ft | 459 kts | 26° |
| 2026-05-04 04:28 | 0.61244 | -30.25684 | 34911 ft | 459 kts | 26° |
| 2026-05-04 04:29 | 0.66999 | -30.22922 | 34914 ft | 459 kts | 25° |
| 2026-05-04 04:29 | 0.72719 | -30.20177 | 34914 ft | 459 kts | 25° |
| 2026-05-04 04:30 | 0.78483 | -30.17413 | 34914 ft | 459 kts | 25° |
| 2026-05-04 04:30 | 0.84241 | -30.14651 | 34915 ft | 459 kts | 25° |
| 2026-05-04 04:31 | 0.89998 | -30.11889 | 34913 ft | 459 kts | 25° |
| 2026-05-04 04:31 | 0.95760 | -30.09123 | 34912 ft | 459 kts | 25° |
| 2026-05-04 04:32 | 1.01519 | -30.06359 | 34913 ft | 458 kts | 25° |
| 2026-05-04 04:32 | 1.07263 | -30.03604 | 34914 ft | 458 kts | 25° |
| 2026-05-04 04:33 | 1.13009 | -30.00848 | 34913 ft | 458 kts | 25° |
| 2026-05-04 04:33 | 1.18755 | -29.98091 | 34911 ft | 458 kts | 25° |
| 2026-05-04 04:34 | 1.24458 | -29.95354 | 34914 ft | 458 kts | 25° |
| 2026-05-04 04:34 | 1.30196 | -29.92601 | 34915 ft | 457 kts | 25° |
| 2026-05-04 04:35 | 1.35938 | -29.89844 | 34912 ft | 458 kts | 25° |
| 2026-05-04 04:35 | 1.41678 | -29.87090 | 34912 ft | 458 kts | 25° |
| 2026-05-04 04:36 | 1.47422 | -29.84333 | 34913 ft | 457 kts | 25° |
| 2026-05-04 04:36 | 1.53162 | -29.81577 | 34907 ft | 457 kts | 25° |
| 2026-05-04 04:37 | 1.64634 | -29.76071 | 34912 ft | 457 kts | 25° |
| 2026-05-04 04:38 | 1.70376 | -29.73314 | 34914 ft | 458 kts | 25° |
| 2026-05-04 04:38 | 1.76087 | -29.70572 | 34912 ft | 458 kts | 25° |
| 2026-05-04 04:39 | 1.81879 | -29.67791 | 34911 ft | 459 kts | 25° |
| 2026-05-04 04:39 | 1.87634 | -29.65027 | 34912 ft | 459 kts | 25° |
| 2026-05-04 04:40 | 1.93350 | -29.62282 | 34911 ft | 459 kts | 25° |
| 2026-05-04 04:40 | 1.99101 | -29.59520 | 34912 ft | 459 kts | 25° |
| 2026-05-04 04:41 | 2.04860 | -29.56753 | 34911 ft | 459 kts | 25° |
| 2026-05-04 04:41 | 2.10627 | -29.53984 | 34911 ft | 459 kts | 25° |
| 2026-05-04 04:42 | 2.16388 | -29.51216 | 34911 ft | 459 kts | 25° |
| 2026-05-04 04:42 | 2.22150 | -29.48448 | 34912 ft | 459 kts | 25° |
| 2026-05-04 04:43 | 2.27910 | -29.45681 | 34911 ft | 459 kts | 25° |
| 2026-05-04 04:43 | 2.33667 | -29.42914 | 34913 ft | 459 kts | 25° |
| 2026-05-04 04:44 | 2.39401 | -29.40159 | 34910 ft | 460 kts | 25° |
| 2026-05-04 04:44 | 2.45172 | -29.37385 | 34908 ft | 460 kts | 25° |
| 2026-05-04 04:45 | 2.50948 | -29.34610 | 34910 ft | 460 kts | 25° |
| 2026-05-04 04:47 | 2.71145 | -29.24900 | 34915 ft | 460 kts | 25° |
| 2026-05-04 04:47 | 2.76915 | -29.22124 | 34914 ft | 460 kts | 25° |
| 2026-05-04 04:48 | 2.82680 | -29.19352 | 34909 ft | 460 kts | 25° |
| 2026-05-04 04:49 | 2.97058 | -29.12437 | 34912 ft | 460 kts | 25° |
| 2026-05-04 04:49 | 3.02823 | -29.09663 | 34913 ft | 460 kts | 25° |
| 2026-05-04 04:50 | 3.08584 | -29.06891 | 34914 ft | 460 kts | 25° |
| 2026-05-04 04:50 | 3.13415 | -29.04566 | 34915 ft | 460 kts | 25° |
| 2026-05-04 04:51 | 3.19180 | -29.01792 | 34911 ft | 459 kts | 25° |
| 2026-05-04 04:51 | 3.24941 | -28.99019 | 34911 ft | 459 kts | 25° |
| 2026-05-04 04:52 | 3.30706 | -28.96244 | 34912 ft | 460 kts | 25° |
| 2026-05-04 04:52 | 3.36430 | -28.93487 | 34912 ft | 459 kts | 25° |
| 2026-05-04 04:53 | 3.42182 | -28.90717 | 34913 ft | 459 kts | 25° |
| 2026-05-04 04:53 | 3.47936 | -28.87947 | 34915 ft | 459 kts | 25° |
| 2026-05-04 04:54 | 3.53689 | -28.85176 | 34913 ft | 459 kts | 25° |
| 2026-05-04 04:54 | 3.59444 | -28.82404 | 34912 ft | 459 kts | 25° |
| 2026-05-04 04:55 | 3.65198 | -28.79632 | 34915 ft | 459 kts | 25° |
| 2026-05-04 04:55 | 3.70949 | -28.76860 | 34914 ft | 459 kts | 25° |
| 2026-05-04 04:56 | 3.76714 | -28.74083 | 34914 ft | 460 kts | 25° |
| 2026-05-04 04:56 | 3.82479 | -28.71304 | 34914 ft | 460 kts | 25° |
| 2026-05-04 04:57 | 3.88244 | -28.68525 | 34915 ft | 460 kts | 25° |
| 2026-05-04 04:57 | 3.94012 | -28.65743 | 34912 ft | 460 kts | 25° |
| 2026-05-04 04:58 | 3.99748 | -28.62977 | 34911 ft | 460 kts | 25° |
| 2026-05-04 04:58 | 4.05523 | -28.60191 | 34915 ft | 461 kts | 25° |
| 2026-05-04 04:59 | 4.11306 | -28.57402 | 34915 ft | 461 kts | 25° |
| 2026-05-04 04:59 | 4.17087 | -28.54614 | 34916 ft | 461 kts | 25° |
| 2026-05-04 05:00 | 4.22875 | -28.51821 | 34920 ft | 461 kts | 25° |
| 2026-05-04 05:01 | 4.31518 | -28.47650 | 34919 ft | 461 kts | 25° |
| 2026-05-04 05:01 | 4.37302 | -28.44857 | 34918 ft | 461 kts | 25° |
| 2026-05-04 05:02 | 4.43086 | -28.42064 | 34918 ft | 462 kts | 25° |
| 2026-05-04 05:02 | 4.48875 | -28.39269 | 34919 ft | 462 kts | 25° |
| 2026-05-04 05:03 | 4.54673 | -28.36469 | 34917 ft | 461 kts | 25° |
| 2026-05-04 05:04 | 4.66205 | -28.30898 | 34920 ft | 461 kts | 25° |
| 2026-05-04 05:04 | 4.71991 | -28.28102 | 34926 ft | 461 kts | 25° |
| 2026-05-04 05:06 | 4.95131 | -28.16915 | 34925 ft | 461 kts | 25° |
| 2026-05-04 05:07 | 5.00915 | -28.14117 | 34924 ft | 461 kts | 25° |
| 2026-05-04 05:07 | 5.06658 | -28.11337 | 34926 ft | 461 kts | 24° |
| 2026-05-04 05:09 | 5.32679 | -27.98743 | 34929 ft | 461 kts | 24° |
| 2026-05-04 05:10 | 5.38460 | -27.95943 | 34934 ft | 461 kts | 24° |
| 2026-05-04 05:10 | 5.44239 | -27.93141 | 34931 ft | 461 kts | 24° |
| 2026-05-04 05:11 | 5.49982 | -27.90359 | 34931 ft | 461 kts | 24° |
| 2026-05-04 05:11 | 5.55758 | -27.87561 | 34932 ft | 461 kts | 24° |
| 2026-05-04 05:12 | 5.61531 | -27.84762 | 34926 ft | 461 kts | 24° |
| 2026-05-04 05:12 | 5.67301 | -27.81965 | 34933 ft | 461 kts | 24° |
| 2026-05-04 05:13 | 5.73073 | -27.79165 | 34937 ft | 461 kts | 24° |
| 2026-05-04 05:13 | 5.78841 | -27.76366 | 34931 ft | 460 kts | 24° |
| 2026-05-04 05:14 | 5.84607 | -27.73569 | 34935 ft | 460 kts | 24° |
| 2026-05-04 05:14 | 5.90380 | -27.70768 | 34932 ft | 460 kts | 24° |
| 2026-05-04 05:15 | 5.96152 | -27.67966 | 34935 ft | 460 kts | 24° |
| 2026-05-04 05:15 | 6.01918 | -27.65167 | 34935 ft | 460 kts | 24° |
| 2026-05-04 05:16 | 6.07647 | -27.62386 | 34938 ft | 460 kts | 24° |
| 2026-05-04 05:16 | 6.13402 | -27.59589 | 34934 ft | 460 kts | 24° |
| 2026-05-04 05:17 | 6.19163 | -27.56791 | 34936 ft | 459 kts | 24° |
| 2026-05-04 05:17 | 6.24918 | -27.53995 | 34934 ft | 459 kts | 24° |
| 2026-05-04 05:18 | 6.30673 | -27.51198 | 34933 ft | 459 kts | 24° |
| 2026-05-04 05:18 | 6.36439 | -27.48394 | 34938 ft | 459 kts | 24° |
| 2026-05-04 05:19 | 6.42198 | -27.45593 | 34939 ft | 459 kts | 24° |
| 2026-05-04 05:19 | 6.47958 | -27.42791 | 34940 ft | 459 kts | 24° |
| 2026-05-04 05:20 | 6.53674 | -27.40010 | 34940 ft | 459 kts | 24° |
| 2026-05-04 05:20 | 6.59427 | -27.37210 | 34940 ft | 459 kts | 24° |
| 2026-05-04 05:21 | 6.65183 | -27.34407 | 34936 ft | 459 kts | 24° |
| 2026-05-04 05:21 | 6.70937 | -27.31605 | 34940 ft | 459 kts | 24° |
| 2026-05-04 05:22 | 6.76689 | -27.28803 | 34939 ft | 459 kts | 24° |
| 2026-05-04 05:22 | 6.82439 | -27.26000 | 34941 ft | 459 kts | 24° |
| 2026-05-04 05:23 | 6.88193 | -27.23197 | 34939 ft | 459 kts | 24° |
| 2026-05-04 05:23 | 6.93942 | -27.20395 | 34939 ft | 459 kts | 24° |
| 2026-05-04 05:24 | 6.99697 | -27.17588 | 34942 ft | 459 kts | 24° |
| 2026-05-04 05:24 | 7.05447 | -27.14783 | 34936 ft | 459 kts | 24° |
| 2026-05-04 05:25 | 7.11158 | -27.11997 | 34943 ft | 459 kts | 24° |
| 2026-05-04 05:25 | 7.16911 | -27.09188 | 34942 ft | 459 kts | 24° |
| 2026-05-04 05:26 | 7.22664 | -27.06381 | 34940 ft | 459 kts | 24° |
| 2026-05-04 05:26 | 7.28417 | -27.03572 | 34941 ft | 459 kts | 24° |
| 2026-05-04 05:28 | 7.51435 | -26.92321 | 34948 ft | 460 kts | 24° |
| 2026-05-04 05:29 | 7.57155 | -26.89526 | 34948 ft | 460 kts | 24° |
| 2026-05-04 05:29 | 7.62916 | -26.86708 | 34942 ft | 460 kts | 24° |
| 2026-05-04 05:31 | 7.85946 | -26.75431 | 34949 ft | 460 kts | 23° |
| 2026-05-04 05:32 | 7.91666 | -26.72628 | 34947 ft | 460 kts | 23° |
| 2026-05-04 05:33 | 8.00299 | -26.68397 | 34934 ft | 460 kts | 23° |
| 2026-05-04 05:33 | 8.06063 | -26.65571 | 34935 ft | 460 kts | 23° |
| 2026-05-04 05:34 | 8.11821 | -26.62747 | 34935 ft | 460 kts | 23° |
| 2026-05-04 05:34 | 8.17581 | -26.59919 | 34940 ft | 461 kts | 23° |
| 2026-05-04 05:35 | 8.23347 | -26.57089 | 34945 ft | 461 kts | 23° |
| 2026-05-04 05:35 | 8.29122 | -26.54256 | 34940 ft | 461 kts | 23° |
| 2026-05-04 05:36 | 8.34845 | -26.51445 | 34939 ft | 461 kts | 23° |
| 2026-05-04 05:36 | 8.40610 | -26.48613 | 34943 ft | 461 kts | 23° |
| 2026-05-04 05:37 | 8.46374 | -26.45781 | 34954 ft | 460 kts | 23° |
| 2026-05-04 05:37 | 8.52142 | -26.42942 | 34944 ft | 461 kts | 23° |
| 2026-05-04 05:38 | 8.60820 | -26.38676 | 34941 ft | 462 kts | 23° |
| 2026-05-04 05:38 | 8.66599 | -26.35833 | 34941 ft | 462 kts | 23° |
| 2026-05-04 05:39 | 8.75266 | -26.31568 | 34941 ft | 462 kts | 23° |
| 2026-05-04 05:40 | 8.83893 | -26.27319 | 34951 ft | 462 kts | 22° |
| 2026-05-04 05:40 | 8.89680 | -26.24465 | 34944 ft | 462 kts | 22° |
| 2026-05-04 05:41 | 8.95468 | -26.21614 | 34942 ft | 462 kts | 22° |
| 2026-05-04 05:41 | 9.01249 | -26.18765 | 34942 ft | 462 kts | 22° |
| 2026-05-04 05:42 | 9.07033 | -26.15912 | 34944 ft | 462 kts | 22° |
| 2026-05-04 05:42 | 9.12822 | -26.13056 | 34944 ft | 462 kts | 22° |
| 2026-05-04 05:43 | 9.18605 | -26.10201 | 34949 ft | 462 kts | 22° |
| 2026-05-04 05:45 | 9.40836 | -25.99219 | 34949 ft | 464 kts | 22° |
| 2026-05-04 05:47 | 9.64037 | -25.87739 | 34950 ft | 464 kts | 22° |
| 2026-05-04 05:47 | 9.69842 | -25.84865 | 34949 ft | 464 kts | 22° |
| 2026-05-04 05:48 | 9.75643 | -25.81991 | 34948 ft | 464 kts | 22° |
| 2026-05-04 05:48 | 9.81441 | -25.79118 | 34948 ft | 464 kts | 22° |
| 2026-05-04 05:49 | 9.87241 | -25.76243 | 34950 ft | 464 kts | 22° |
| 2026-05-04 05:49 | 9.93042 | -25.73366 | 34950 ft | 464 kts | 22° |
| 2026-05-04 05:51 | 10.16202 | -25.61867 | 34950 ft | 464 kts | 22° |
| 2026-05-04 05:52 | 10.21974 | -25.58998 | 34955 ft | 464 kts | 22° |
| 2026-05-04 05:52 | 10.27760 | -25.56117 | 34948 ft | 463 kts | 21° |
| 2026-05-04 05:54 | 10.50882 | -25.44613 | 34950 ft | 462 kts | 21° |
| 2026-05-04 05:55 | 10.56658 | -25.41736 | 34947 ft | 462 kts | 21° |
| 2026-05-04 05:55 | 10.62440 | -25.38849 | 34950 ft | 463 kts | 21° |
| 2026-05-04 05:56 | 10.68199 | -25.35980 | 34950 ft | 463 kts | 21° |
| 2026-05-04 05:56 | 10.73990 | -25.33093 | 34949 ft | 463 kts | 21° |
| 2026-05-04 05:57 | 10.79782 | -25.30202 | 34950 ft | 463 kts | 21° |
| 2026-05-04 05:57 | 10.85574 | -25.27311 | 34949 ft | 463 kts | 21° |
| 2026-05-04 05:58 | 10.91368 | -25.24417 | 34951 ft | 463 kts | 21° |
| 2026-05-04 05:58 | 10.97153 | -25.21524 | 34952 ft | 463 kts | 21° |
| 2026-05-04 05:59 | 11.02935 | -25.18634 | 34954 ft | 463 kts | 21° |
| 2026-05-04 05:59 | 11.08721 | -25.15741 | 34950 ft | 463 kts | 21° |
| 2026-05-04 06:00 | 11.14508 | -25.12845 | 34953 ft | 463 kts | 21° |
| 2026-05-04 06:00 | 11.20259 | -25.09967 | 34956 ft | 463 kts | 21° |
| 2026-05-04 06:01 | 11.26042 | -25.07071 | 34949 ft | 463 kts | 21° |
| 2026-05-04 06:03 | 11.49162 | -24.95478 | 34951 ft | 462 kts | 21° |
| 2026-05-04 06:05 | 11.75122 | -24.82436 | 34953 ft | 462 kts | 20° |
| 2026-05-04 06:06 | 11.80893 | -24.79533 | 34955 ft | 462 kts | 20° |
| 2026-05-04 06:06 | 11.86662 | -24.76630 | 34951 ft | 462 kts | 20° |
| 2026-05-04 06:07 | 11.92432 | -24.73725 | 34951 ft | 462 kts | 20° |
| 2026-05-04 06:07 | 11.98203 | -24.70818 | 34960 ft | 462 kts | 20° |
| 2026-05-04 06:08 | 12.03968 | -24.67913 | 34947 ft | 462 kts | 21° |
| 2026-05-04 06:08 | 12.09688 | -24.65029 | 34945 ft | 461 kts | 21° |
| 2026-05-04 06:09 | 12.15448 | -24.62123 | 34951 ft | 461 kts | 21° |
| 2026-05-04 06:11 | 12.38482 | -24.50490 | 34948 ft | 461 kts | 21° |
| 2026-05-04 06:13 | 12.61482 | -24.38849 | 34949 ft | 461 kts | 21° |
| 2026-05-04 06:14 | 12.81562 | -24.28668 | 34946 ft | 461 kts | 21° |
| 2026-05-04 06:15 | 12.87311 | -24.25749 | 34949 ft | 461 kts | 21° |
| 2026-05-04 06:15 | 12.93059 | -24.22830 | 34950 ft | 461 kts | 21° |
| 2026-05-04 06:16 | 12.98803 | -24.19911 | 34947 ft | 461 kts | 21° |
| 2026-05-04 06:16 | 13.04548 | -24.16991 | 34950 ft | 461 kts | 21° |
| 2026-05-04 06:17 | 13.10296 | -24.14067 | 34947 ft | 461 kts | 21° |
| 2026-05-04 06:17 | 13.16046 | -24.11140 | 34947 ft | 461 kts | 21° |
| 2026-05-04 06:18 | 13.21756 | -24.08232 | 34950 ft | 461 kts | 21° |
| 2026-05-04 06:20 | 13.44769 | -23.96499 | 34947 ft | 461 kts | 21° |
| 2026-05-04 06:21 | 13.59140 | -23.89158 | 34950 ft | 461 kts | 21° |
| 2026-05-04 06:22 | 13.64890 | -23.86219 | 34950 ft | 461 kts | 21° |
| 2026-05-04 06:25 | 14.05132 | -23.65599 | 34953 ft | 462 kts | 22° |
| 2026-05-04 06:26 | 14.10903 | -23.62637 | 34953 ft | 464 kts | 22° |
| 2026-05-04 06:26 | 14.16680 | -23.59668 | 34941 ft | 464 kts | 22° |
| 2026-05-04 06:27 | 14.31112 | -23.52244 | 34934 ft | 464 kts | 22° |
| 2026-05-04 06:28 | 14.36849 | -23.49290 | 34931 ft | 464 kts | 22° |
| 2026-05-04 06:28 | 14.42623 | -23.46317 | 34929 ft | 464 kts | 22° |
| 2026-05-04 06:29 | 14.48408 | -23.43335 | 34927 ft | 465 kts | 22° |
| 2026-05-04 06:29 | 14.54201 | -23.40349 | 34925 ft | 466 kts | 22° |
| 2026-05-04 06:30 | 14.59996 | -23.37356 | 34924 ft | 466 kts | 22° |
| 2026-05-04 06:30 | 14.65797 | -23.34360 | 34927 ft | 466 kts | 22° |
| 2026-05-04 06:31 | 14.71597 | -23.31363 | 34924 ft | 466 kts | 22° |
| 2026-05-04 06:31 | 14.77391 | -23.28369 | 34925 ft | 466 kts | 22° |
| 2026-05-04 06:33 | 15.00601 | -23.16349 | 34939 ft | 467 kts | 22° |
| 2026-05-04 06:34 | 15.06412 | -23.13336 | 34935 ft | 467 kts | 22° |
| 2026-05-04 06:34 | 15.12229 | -23.10320 | 34956 ft | 468 kts | 23° |
| 2026-05-04 06:36 | 15.35552 | -22.98197 | 34952 ft | 469 kts | 23° |
| 2026-05-04 06:37 | 15.41388 | -22.95159 | 34959 ft | 469 kts | 23° |
| 2026-05-04 06:37 | 15.47231 | -22.92117 | 34963 ft | 471 kts | 23° |
| 2026-05-04 06:38 | 15.52105 | -22.89578 | 34959 ft | 471 kts | 23° |
| 2026-05-04 06:40 | 15.75524 | -22.77353 | 34952 ft | 472 kts | 23° |
| 2026-05-04 06:40 | 15.81395 | -22.74284 | 34962 ft | 473 kts | 23° |
| 2026-05-04 06:41 | 15.87278 | -22.71206 | 34958 ft | 474 kts | 23° |
| 2026-05-04 06:41 | 15.93165 | -22.68124 | 34951 ft | 474 kts | 23° |
| 2026-05-04 06:42 | 15.99049 | -22.65042 | 34949 ft | 473 kts | 23° |
| 2026-05-04 06:44 | 16.22568 | -22.52702 | 34946 ft | 475 kts | 23° |
| 2026-05-04 06:44 | 16.28467 | -22.49601 | 34944 ft | 475 kts | 23° |
| 2026-05-04 06:45 | 16.34359 | -22.46502 | 34943 ft | 475 kts | 23° |
| 2026-05-04 06:45 | 16.40268 | -22.43393 | 34943 ft | 475 kts | 23° |
| 2026-05-04 06:46 | 16.46172 | -22.40283 | 34946 ft | 475 kts | 23° |
| 2026-05-04 06:46 | 16.52081 | -22.37168 | 34948 ft | 477 kts | 23° |
| 2026-05-04 06:48 | 16.75733 | -22.24682 | 34948 ft | 477 kts | 23° |
| 2026-05-04 06:50 | 16.99371 | -22.12168 | 34961 ft | 476 kts | 23° |
| 2026-05-04 06:51 | 17.05282 | -22.09033 | 34959 ft | 476 kts | 23° |
| 2026-05-04 06:51 | 17.11196 | -22.05895 | 34961 ft | 476 kts | 23° |
| 2026-05-04 06:52 | 17.17113 | -22.02752 | 34975 ft | 476 kts | 23° |
| 2026-05-04 06:52 | 17.23027 | -21.99609 | 34968 ft | 478 kts | 23° |
| 2026-05-04 06:53 | 17.28916 | -21.96476 | 34961 ft | 478 kts | 23° |
| 2026-05-04 06:53 | 17.34848 | -21.93319 | 34963 ft | 477 kts | 23° |
| 2026-05-04 06:54 | 17.40767 | -21.90166 | 34964 ft | 477 kts | 23° |
| 2026-05-04 06:54 | 17.46688 | -21.87010 | 34967 ft | 477 kts | 24° |
| 2026-05-04 06:55 | 17.52611 | -21.83851 | 34981 ft | 478 kts | 23° |
| 2026-05-04 06:55 | 17.58542 | -21.80684 | 34974 ft | 478 kts | 23° |
| 2026-05-04 06:57 | 17.82251 | -21.68004 | 34967 ft | 479 kts | 24° |
| 2026-05-04 06:58 | 17.88192 | -21.64820 | 34973 ft | 479 kts | 23° |
| 2026-05-04 06:58 | 17.94129 | -21.61637 | 34971 ft | 479 kts | 23° |
| 2026-05-04 06:59 | 18.00067 | -21.58451 | 34968 ft | 479 kts | 23° |
| 2026-05-04 06:59 | 18.06006 | -21.55261 | 34970 ft | 479 kts | 23° |
| 2026-05-04 07:01 | 18.29729 | -21.42496 | 34977 ft | 480 kts | 23° |
| 2026-05-04 07:02 | 18.35671 | -21.39293 | 34972 ft | 480 kts | 23° |
| 2026-05-04 07:02 | 18.41618 | -21.36085 | 34972 ft | 480 kts | 23° |
| 2026-05-04 07:03 | 18.47560 | -21.32876 | 34974 ft | 480 kts | 23° |
| 2026-05-04 07:03 | 18.53508 | -21.29662 | 34977 ft | 480 kts | 23° |
| 2026-05-04 07:04 | 18.59460 | -21.26442 | 34985 ft | 479 kts | 23° |
| 2026-05-04 07:04 | 18.65353 | -21.23253 | 34981 ft | 479 kts | 23° |
| 2026-05-04 07:05 | 18.71292 | -21.20037 | 34978 ft | 479 kts | 23° |
| 2026-05-04 07:05 | 18.77232 | -21.16817 | 34977 ft | 480 kts | 23° |
| 2026-05-04 07:06 | 18.86134 | -21.11986 | 34979 ft | 480 kts | 23° |
| 2026-05-04 07:07 | 18.92078 | -21.08756 | 34986 ft | 480 kts | 23° |
| 2026-05-04 07:09 | 19.15763 | -20.95867 | 34981 ft | 479 kts | 23° |
| 2026-05-04 07:09 | 19.21692 | -20.92633 | 34980 ft | 479 kts | 23° |
| 2026-05-04 07:10 | 19.27618 | -20.89397 | 34984 ft | 479 kts | 23° |
| 2026-05-04 07:12 | 19.51322 | -20.76433 | 34982 ft | 479 kts | 23° |
| 2026-05-04 07:12 | 19.57248 | -20.73185 | 34994 ft | 479 kts | 23° |
| 2026-05-04 07:13 | 19.63165 | -20.69936 | 34990 ft | 479 kts | 23° |
| 2026-05-04 07:13 | 19.69084 | -20.66689 | 34985 ft | 479 kts | 23° |
| 2026-05-04 07:14 | 19.83882 | -20.58555 | 34985 ft | 479 kts | 23° |
| 2026-05-04 07:15 | 19.89794 | -20.55299 | 34983 ft | 479 kts | 23° |
| 2026-05-04 07:15 | 19.95690 | -20.52053 | 34984 ft | 481 kts | 23° |
| 2026-05-04 07:16 | 20.01633 | -20.48774 | 34986 ft | 482 kts | 23° |
| 2026-05-04 07:16 | 20.07584 | -20.45486 | 34980 ft | 480 kts | 23° |
| 2026-05-04 07:17 | 20.13514 | -20.42210 | 34980 ft | 480 kts | 23° |
| 2026-05-04 07:17 | 20.19440 | -20.38933 | 34995 ft | 480 kts | 23° |
| 2026-05-04 07:18 | 20.25363 | -20.35656 | 34984 ft | 480 kts | 23° |
| 2026-05-04 07:18 | 20.31286 | -20.32375 | 34983 ft | 480 kts | 23° |
| 2026-05-04 07:19 | 20.37170 | -20.29113 | 34998 ft | 479 kts | 23° |
| 2026-05-04 07:19 | 20.43089 | -20.25829 | 34985 ft | 479 kts | 23° |
| 2026-05-04 07:20 | 20.49006 | -20.22542 | 34983 ft | 479 kts | 23° |
| 2026-05-04 07:20 | 20.54923 | -20.19253 | 34980 ft | 479 kts | 23° |
| 2026-05-04 07:22 | 20.78695 | -20.06010 | 34988 ft | 481 kts | 23° |
| 2026-05-04 07:23 | 20.84630 | -20.02697 | 34989 ft | 481 kts | 23° |
| 2026-05-04 07:23 | 20.90557 | -19.99384 | 34988 ft | 481 kts | 23° |
| 2026-05-04 07:24 | 20.96502 | -19.96058 | 34994 ft | 484 kts | 23° |
| 2026-05-04 07:24 | 21.02470 | -19.92718 | 34993 ft | 484 kts | 23° |
| 2026-05-04 07:26 | 21.26308 | -19.79341 | 35006 ft | 484 kts | 23° |
| 2026-05-04 07:27 | 21.32275 | -19.75983 | 34994 ft | 484 kts | 23° |
| 2026-05-04 07:27 | 21.38241 | -19.72626 | 34994 ft | 484 kts | 23° |
| 2026-05-04 07:28 | 21.44205 | -19.69267 | 34994 ft | 484 kts | 23° |
| 2026-05-04 07:28 | 21.50166 | -19.65905 | 34994 ft | 484 kts | 23° |
| 2026-05-04 07:29 | 21.56130 | -19.62539 | 34993 ft | 484 kts | 23° |
| 2026-05-04 07:29 | 21.62087 | -19.59169 | 35000 ft | 483 kts | 22° |
| 2026-05-04 07:30 | 21.68000 | -19.55826 | 34997 ft | 483 kts | 22° |
| 2026-05-04 07:30 | 21.73951 | -19.52459 | 34996 ft | 483 kts | 22° |
| 2026-05-04 07:31 | 21.79899 | -19.49089 | 34997 ft | 483 kts | 23° |
| 2026-05-04 07:33 | 22.02681 | -19.36150 | 34998 ft | 483 kts | 22° |
| 2026-05-04 07:33 | 22.08623 | -19.32768 | 34999 ft | 483 kts | 22° |
| 2026-05-04 07:34 | 22.14569 | -19.29381 | 34999 ft | 483 kts | 23° |
| 2026-05-04 07:34 | 22.20512 | -19.25991 | 34999 ft | 483 kts | 23° |
| 2026-05-04 07:35 | 22.26451 | -19.22600 | 35014 ft | 483 kts | 22° |
| 2026-05-04 07:35 | 22.32408 | -19.19196 | 35005 ft | 484 kts | 22° |
| 2026-05-04 07:36 | 22.38365 | -19.15789 | 34999 ft | 484 kts | 22° |
| 2026-05-04 07:38 | 22.62126 | -19.02160 | 35011 ft | 484 kts | 22° |
| 2026-05-04 07:38 | 22.68078 | -18.98741 | 35006 ft | 485 kts | 22° |
| 2026-05-04 07:39 | 22.74039 | -18.95313 | 35005 ft | 485 kts | 22° |
| 2026-05-04 07:39 | 22.79997 | -18.91882 | 35005 ft | 485 kts | 22° |
| 2026-05-04 07:40 | 22.85955 | -18.88447 | 35008 ft | 485 kts | 22° |
| 2026-05-04 07:40 | 22.91912 | -18.85009 | 35031 ft | 485 kts | 22° |
| 2026-05-04 07:41 | 22.97803 | -18.81607 | 35011 ft | 481 kts | 22° |
| 2026-05-04 07:41 | 23.03712 | -18.78189 | 35008 ft | 481 kts | 22° |
| 2026-05-04 07:42 | 23.09617 | -18.74771 | 35007 ft | 481 kts | 22° |
| 2026-05-04 07:42 | 23.15526 | -18.71347 | 35010 ft | 481 kts | 22° |
| 2026-05-04 07:43 | 23.21432 | -18.67922 | 35009 ft | 481 kts | 22° |
| 2026-05-04 07:43 | 23.27331 | -18.64501 | 35009 ft | 477 kts | 23° |
| 2026-05-04 07:44 | 23.33132 | -18.61128 | 35009 ft | 475 kts | 23° |
| 2026-05-04 07:44 | 23.38968 | -18.57731 | 35011 ft | 475 kts | 23° |
| 2026-05-04 07:45 | 23.44800 | -18.54334 | 35011 ft | 475 kts | 23° |
| 2026-05-04 07:45 | 23.50627 | -18.50937 | 35010 ft | 475 kts | 23° |
| 2026-05-04 07:46 | 23.56457 | -18.47535 | 35021 ft | 475 kts | 23° |
| 2026-05-04 07:46 | 23.62284 | -18.44131 | 35013 ft | 475 kts | 23° |
| 2026-05-04 07:47 | 23.68137 | -18.40708 | 35020 ft | 478 kts | 23° |
| 2026-05-04 07:49 | 23.91548 | -18.26986 | 35028 ft | 476 kts | 23° |
| 2026-05-04 07:49 | 23.97383 | -18.23556 | 35025 ft | 475 kts | 23° |
| 2026-05-04 07:50 | 24.03199 | -18.20133 | 35023 ft | 475 kts | 23° |
| 2026-05-04 07:50 | 24.09023 | -18.16703 | 35028 ft | 475 kts | 23° |
| 2026-05-04 07:51 | 24.14841 | -18.13273 | 35025 ft | 475 kts | 23° |
| 2026-05-04 07:51 | 24.20668 | -18.09834 | 35024 ft | 475 kts | 23° |
| 2026-05-04 07:52 | 24.26488 | -18.06393 | 35031 ft | 475 kts | 23° |
| 2026-05-04 07:52 | 24.32276 | -18.02970 | 35030 ft | 475 kts | 23° |
| 2026-05-04 07:54 | 24.55563 | -17.89159 | 35044 ft | 475 kts | 23° |
| 2026-05-04 07:55 | 24.61384 | -17.85694 | 35034 ft | 476 kts | 23° |
| 2026-05-04 07:55 | 24.67201 | -17.82232 | 35030 ft | 476 kts | 23° |
| 2026-05-04 07:56 | 24.72985 | -17.78784 | 35032 ft | 476 kts | 23° |
| 2026-05-04 07:56 | 24.78800 | -17.75311 | 35031 ft | 476 kts | 23° |
| 2026-05-04 07:57 | 24.84617 | -17.71831 | 35030 ft | 476 kts | 23° |
| 2026-05-04 07:57 | 24.90435 | -17.68343 | 35042 ft | 476 kts | 23° |
| 2026-05-04 07:58 | 24.96277 | -17.64894 | 35036 ft | 475 kts | 20° |
| 2026-05-04 07:58 | 25.02320 | -17.62050 | 35035 ft | 469 kts | 12° |
| 2026-05-04 07:59 | 25.08521 | -17.59984 | 35035 ft | 464 kts | 8° |
| 2026-05-04 07:59 | 25.14716 | -17.58131 | 35038 ft | 464 kts | 8° |
| 2026-05-04 08:00 | 25.20944 | -17.56252 | 35059 ft | 465 kts | 8° |
| 2026-05-04 08:02 | 25.45885 | -17.48635 | 35047 ft | 465 kts | 8° |
| 2026-05-04 08:02 | 25.52118 | -17.46722 | 35062 ft | 465 kts | 8° |
| 2026-05-04 08:03 | 25.58360 | -17.44807 | 35054 ft | 465 kts | 8° |
| 2026-05-04 08:03 | 25.64598 | -17.42891 | 35053 ft | 465 kts | 8° |
| 2026-05-04 08:04 | 25.70838 | -17.40971 | 35053 ft | 465 kts | 8° |
| 2026-05-04 08:04 | 25.77081 | -17.39049 | 35048 ft | 465 kts | 8° |
| 2026-05-04 08:05 | 25.83313 | -17.37125 | 35067 ft | 465 kts | 7° |
| 2026-05-04 08:05 | 25.89552 | -17.35200 | 35055 ft | 465 kts | 7° |
| 2026-05-04 08:06 | 25.95751 | -17.33286 | 35055 ft | 465 kts | 7° |
| 2026-05-04 08:06 | 26.01982 | -17.31359 | 35057 ft | 465 kts | 7° |
| 2026-05-04 08:08 | 26.26908 | -17.23627 | 35059 ft | 464 kts | 7° |
| 2026-05-04 08:11 | 26.54904 | -17.14898 | 35070 ft | 464 kts | 7° |
| 2026-05-04 08:11 | 26.64202 | -17.11990 | 35198 ft | 468 kts | 7° |
| 2026-05-04 08:12 | 26.67342 | -17.11007 | 35521 ft | 469 kts | 7° |
| 2026-05-04 08:12 | 26.70484 | -17.10020 | 35837 ft | 470 kts | 7° |
| 2026-05-04 08:12 | 26.73638 | -17.09029 | 36114 ft | 471 kts | 7° |
| 2026-05-04 08:12 | 26.76798 | -17.08035 | 36365 ft | 473 kts | 7° |
| 2026-05-04 08:13 | 26.79980 | -17.07033 | 36600 ft | 475 kts | 7° |
| 2026-05-04 08:13 | 26.83165 | -17.06030 | 36843 ft | 477 kts | 7° |
| 2026-05-04 08:13 | 26.86370 | -17.05021 | 37041 ft | 479 kts | 7° |
| 2026-05-04 08:13 | 26.89573 | -17.03992 | 37059 ft | 480 kts | 9° |
| 2026-05-04 08:14 | 26.95933 | -17.01653 | 37068 ft | 481 kts | 11° |
| 2026-05-04 08:16 | 27.21280 | -16.92028 | 37070 ft | 482 kts | 11° |
| 2026-05-04 08:16 | 27.27639 | -16.89609 | 37072 ft | 482 kts | 11° |
| 2026-05-04 08:17 | 27.33995 | -16.87189 | 37091 ft | 482 kts | 11° |
| 2026-05-04 08:17 | 27.40346 | -16.84767 | 37077 ft | 482 kts | 11° |
| 2026-05-04 08:19 | 27.65740 | -16.75056 | 37086 ft | 482 kts | 11° |
| 2026-05-04 08:20 | 27.72091 | -16.72619 | 37076 ft | 482 kts | 11° |
| 2026-05-04 08:20 | 27.78436 | -16.70182 | 37080 ft | 482 kts | 11° |
| 2026-05-04 08:21 | 27.84777 | -16.67742 | 37083 ft | 481 kts | 11° |
| 2026-05-04 08:21 | 27.91114 | -16.65303 | 37090 ft | 481 kts | 11° |
| 2026-05-04 08:22 | 27.97404 | -16.62878 | 37090 ft | 480 kts | 11° |
| 2026-05-04 08:24 | 28.22719 | -16.53089 | 37104 ft | 481 kts | 11° |
| 2026-05-04 08:24 | 28.29044 | -16.50633 | 37133 ft | 480 kts | 11° |
| 2026-05-04 08:25 | 28.35357 | -16.48183 | 37138 ft | 479 kts | 11° |
| 2026-05-04 08:25 | 28.41673 | -16.45729 | 37146 ft | 480 kts | 11° |
| 2026-05-04 08:27 | 28.65803 | -16.36315 | 37138 ft | 478 kts | 11° |
| 2026-05-04 08:28 | 28.72095 | -16.33852 | 37126 ft | 478 kts | 11° |
| 2026-05-04 08:28 | 28.78378 | -16.31390 | 37118 ft | 477 kts | 11° |
| 2026-05-04 08:29 | 28.84651 | -16.28930 | 37117 ft | 477 kts | 11° |
| 2026-05-04 08:31 | 29.09681 | -16.19081 | 37103 ft | 476 kts | 11° |
| 2026-05-04 08:33 | 29.34643 | -16.09207 | 37106 ft | 475 kts | 11° |
| 2026-05-04 08:35 | 29.59552 | -15.99302 | 37099 ft | 473 kts | 11° |
| 2026-05-04 08:35 | 29.65759 | -15.96824 | 37107 ft | 472 kts | 11° |
| 2026-05-04 08:37 | 29.87460 | -15.88143 | 37111 ft | 472 kts | 11° |
| 2026-05-04 08:38 | 29.93658 | -15.85656 | 37113 ft | 472 kts | 11° |
| 2026-05-04 08:38 | 29.99854 | -15.83166 | 37144 ft | 471 kts | 11° |
| 2026-05-04 08:40 | 30.24508 | -15.73226 | 37107 ft | 470 kts | 11° |
| 2026-05-04 08:41 | 30.30673 | -15.70734 | 37124 ft | 469 kts | 11° |
| 2026-05-04 08:41 | 30.36832 | -15.68239 | 37114 ft | 468 kts | 11° |
| 2026-05-04 08:42 | 30.42990 | -15.65741 | 37115 ft | 468 kts | 11° |
| 2026-05-04 08:42 | 30.49099 | -15.63260 | 37112 ft | 467 kts | 11° |
| 2026-05-04 08:43 | 30.55233 | -15.60765 | 37115 ft | 467 kts | 11° |
| 2026-05-04 08:43 | 30.61360 | -15.58273 | 37126 ft | 466 kts | 12° |
| 2026-05-04 08:44 | 30.67483 | -15.55775 | 37117 ft | 466 kts | 12° |
| 2026-05-04 08:46 | 30.91943 | -15.45770 | 37126 ft | 465 kts | 12° |
| 2026-05-04 08:46 | 30.98042 | -15.43264 | 37115 ft | 464 kts | 12° |
| 2026-05-04 08:47 | 31.04097 | -15.40774 | 37124 ft | 464 kts | 12° |
| 2026-05-04 08:47 | 31.10195 | -15.38263 | 37124 ft | 464 kts | 12° |
| 2026-05-04 08:48 | 31.16294 | -15.35751 | 37130 ft | 464 kts | 12° |
| 2026-05-04 08:48 | 31.22379 | -15.33240 | 37116 ft | 463 kts | 12° |
| 2026-05-04 08:49 | 31.28456 | -15.30727 | 37114 ft | 463 kts | 12° |
| 2026-05-04 08:50 | 31.49673 | -15.21932 | 37122 ft | 461 kts | 13° |
| 2026-05-04 08:51 | 31.55723 | -15.19414 | 37119 ft | 461 kts | 13° |
| 2026-05-04 08:51 | 31.61771 | -15.16895 | 37119 ft | 461 kts | 13° |
| 2026-05-04 08:52 | 31.67823 | -15.14371 | 37122 ft | 461 kts | 13° |
| 2026-05-04 08:52 | 31.73869 | -15.11849 | 37135 ft | 460 kts | 13° |
| 2026-05-04 08:54 | 31.97927 | -15.01764 | 37121 ft | 459 kts | 13° |
| 2026-05-04 08:55 | 32.03933 | -14.99240 | 37124 ft | 458 kts | 13° |
| 2026-05-04 08:55 | 32.09946 | -14.96707 | 37120 ft | 458 kts | 13° |
| 2026-05-04 09:01 | 32.73008 | -14.69934 | 37124 ft | 459 kts | 14° |
| 2026-05-04 09:01 | 32.79018 | -14.67362 | 37122 ft | 459 kts | 14° |
| 2026-05-04 09:02 | 32.85021 | -14.64789 | 37130 ft | 458 kts | 14° |
| 2026-05-04 09:02 | 32.90974 | -14.62233 | 37124 ft | 457 kts | 14° |
| 2026-05-04 09:03 | 32.96961 | -14.59660 | 37125 ft | 457 kts | 14° |
| 2026-05-04 09:03 | 33.02944 | -14.57084 | 37117 ft | 457 kts | 14° |
| 2026-05-04 09:04 | 33.08940 | -14.54499 | 37127 ft | 458 kts | 14° |
| 2026-05-04 09:04 | 33.14922 | -14.51916 | 37138 ft | 456 kts | 14° |
| 2026-05-04 09:05 | 33.20886 | -14.49337 | 37135 ft | 455 kts | 14° |
| 2026-05-04 09:05 | 33.26842 | -14.46758 | 37135 ft | 455 kts | 14° |
| 2026-05-04 09:06 | 33.32766 | -14.44190 | 37133 ft | 455 kts | 14° |
| 2026-05-04 09:08 | 33.56569 | -14.33830 | 37145 ft | 454 kts | 14° |
| 2026-05-04 09:08 | 33.62509 | -14.31235 | 37136 ft | 454 kts | 14° |
| 2026-05-04 09:09 | 33.68402 | -14.28652 | 37149 ft | 453 kts | 13° |
| 2026-05-04 09:09 | 33.74321 | -14.26061 | 37143 ft | 452 kts | 13° |
| 2026-05-04 09:10 | 33.80241 | -14.23466 | 37146 ft | 452 kts | 13° |
| 2026-05-04 09:10 | 33.86154 | -14.20869 | 37141 ft | 453 kts | 13° |
| 2026-05-04 09:11 | 33.92084 | -14.18259 | 37189 ft | 454 kts | 13° |
| 2026-05-04 09:11 | 33.98016 | -14.15641 | 37159 ft | 454 kts | 13° |
| 2026-05-04 09:12 | 34.03948 | -14.13026 | 37154 ft | 454 kts | 13° |
| 2026-05-04 09:14 | 34.27641 | -14.02530 | 37157 ft | 454 kts | 13° |
| 2026-05-04 09:14 | 34.33569 | -13.99896 | 37157 ft | 454 kts | 13° |
| 2026-05-04 09:15 | 34.39499 | -13.97255 | 37163 ft | 454 kts | 13° |
| 2026-05-04 09:15 | 34.45427 | -13.94611 | 37203 ft | 454 kts | 13° |
| 2026-05-04 09:17 | 34.72018 | -13.82701 | 37204 ft | 454 kts | 13° |
| 2026-05-04 09:18 | 34.77924 | -13.80045 | 37171 ft | 451 kts | 13° |
| 2026-05-04 09:18 | 34.83818 | -13.77391 | 37168 ft | 451 kts | 13° |
| 2026-05-04 09:19 | 34.89709 | -13.74734 | 37171 ft | 451 kts | 13° |
| 2026-05-04 09:19 | 34.95599 | -13.72072 | 37171 ft | 451 kts | 13° |
| 2026-05-04 09:20 | 35.01433 | -13.69431 | 37181 ft | 449 kts | 13° |
| 2026-05-04 09:20 | 35.07287 | -13.66778 | 37175 ft | 448 kts | 13° |
| 2026-05-04 09:21 | 35.13179 | -13.64105 | 37177 ft | 448 kts | 13° |
| 2026-05-04 09:21 | 35.19028 | -13.61446 | 37176 ft | 448 kts | 13° |
| 2026-05-04 09:22 | 35.24838 | -13.58801 | 37176 ft | 449 kts | 13° |
| 2026-05-04 09:22 | 35.30688 | -13.56133 | 37179 ft | 449 kts | 13° |
| 2026-05-04 09:23 | 35.36536 | -13.53463 | 37178 ft | 449 kts | 13° |
| 2026-05-04 09:23 | 35.42390 | -13.50785 | 37179 ft | 448 kts | 13° |
| 2026-05-04 09:25 | 35.64726 | -13.40529 | 37182 ft | 446 kts | 12° |
| 2026-05-04 09:26 | 35.70537 | -13.37851 | 37179 ft | 446 kts | 12° |
| 2026-05-04 09:26 | 35.76358 | -13.35164 | 37216 ft | 446 kts | 12° |
| 2026-05-04 09:27 | 35.82125 | -13.32496 | 37184 ft | 445 kts | 12° |
| 2026-05-04 09:27 | 35.87923 | -13.29813 | 37166 ft | 445 kts | 12° |
| 2026-05-04 09:28 | 35.93722 | -13.27125 | 37178 ft | 445 kts | 12° |
| 2026-05-04 09:28 | 35.99515 | -13.24434 | 37179 ft | 445 kts | 12° |
| 2026-05-04 09:29 | 36.05306 | -13.21742 | 37187 ft | 444 kts | 12° |
| 2026-05-04 09:29 | 36.11091 | -13.19046 | 37178 ft | 444 kts | 12° |
| 2026-05-04 09:30 | 36.16878 | -13.16344 | 37176 ft | 444 kts | 12° |
| 2026-05-04 09:30 | 36.22659 | -13.13642 | 37178 ft | 444 kts | 12° |
| 2026-05-04 09:31 | 36.28446 | -13.10937 | 37215 ft | 444 kts | 13° |
| 2026-05-04 09:31 | 36.34214 | -13.08233 | 37187 ft | 443 kts | 13° |
| 2026-05-04 09:32 | 36.39972 | -13.05526 | 37177 ft | 442 kts | 13° |
| 2026-05-04 09:34 | 36.62913 | -12.94707 | 37174 ft | 440 kts | 13° |
| 2026-05-04 09:34 | 36.68640 | -12.91996 | 37173 ft | 440 kts | 13° |
| 2026-05-04 09:35 | 36.74367 | -12.89280 | 37165 ft | 440 kts | 13° |
| 2026-05-04 09:35 | 36.80084 | -12.86568 | 37181 ft | 439 kts | 13° |
| 2026-05-04 09:37 | 37.02816 | -12.75726 | 37212 ft | 438 kts | 14° |
| 2026-05-04 09:38 | 37.08518 | -12.73000 | 37176 ft | 437 kts | 14° |
| 2026-05-04 09:38 | 37.14195 | -12.70275 | 37172 ft | 437 kts | 14° |
| 2026-05-04 09:39 | 37.19876 | -12.67547 | 37170 ft | 437 kts | 14° |
| 2026-05-04 09:39 | 37.25551 | -12.64816 | 37171 ft | 437 kts | 14° |
| 2026-05-04 09:40 | 37.31225 | -12.62085 | 37181 ft | 435 kts | 14° |
| 2026-05-04 09:40 | 37.36875 | -12.59357 | 37172 ft | 435 kts | 14° |
| 2026-05-04 09:42 | 37.59399 | -12.48442 | 37175 ft | 432 kts | 14° |
| 2026-05-04 09:43 | 37.65013 | -12.45709 | 37174 ft | 432 kts | 14° |
| 2026-05-04 09:43 | 37.70625 | -12.42974 | 37172 ft | 432 kts | 14° |
| 2026-05-04 09:44 | 37.76238 | -12.40234 | 37178 ft | 433 kts | 14° |
| 2026-05-04 09:46 | 37.98783 | -12.29185 | 37169 ft | 434 kts | 14° |
| 2026-05-04 09:46 | 38.04416 | -12.26413 | 37179 ft | 433 kts | 15° |
| 2026-05-04 09:47 | 38.09990 | -12.23664 | 37159 ft | 432 kts | 15° |
| 2026-05-04 09:49 | 38.32402 | -12.12570 | 37162 ft | 431 kts | 15° |
| 2026-05-04 09:51 | 38.51981 | -12.02817 | 37181 ft | 432 kts | 15° |
| 2026-05-04 09:51 | 38.57548 | -12.00034 | 37165 ft | 432 kts | 15° |
| 2026-05-04 09:52 | 38.63151 | -11.97226 | 37162 ft | 432 kts | 15° |
| 2026-05-04 09:52 | 38.68749 | -11.94417 | 37160 ft | 432 kts | 15° |
| 2026-05-04 09:53 | 38.74350 | -11.91602 | 37189 ft | 432 kts | 15° |
| 2026-05-04 09:53 | 38.79934 | -11.88790 | 37162 ft | 430 kts | 15° |
| 2026-05-04 09:54 | 38.85507 | -11.85979 | 37158 ft | 430 kts | 15° |
| 2026-05-04 09:54 | 38.91078 | -11.83164 | 37154 ft | 430 kts | 15° |
| 2026-05-04 09:55 | 38.96641 | -11.80348 | 37156 ft | 430 kts | 15° |
| 2026-05-04 09:55 | 39.02202 | -11.77528 | 37154 ft | 429 kts | 15° |
| 2026-05-04 09:56 | 39.07757 | -11.74704 | 37160 ft | 429 kts | 15° |
| 2026-05-04 09:56 | 39.13307 | -11.71878 | 37143 ft | 429 kts | 15° |
| 2026-05-04 09:57 | 39.18858 | -11.69044 | 37145 ft | 429 kts | 15° |
| 2026-05-04 09:57 | 39.24367 | -11.66223 | 37168 ft | 428 kts | 15° |
| 2026-05-04 09:58 | 39.29902 | -11.63388 | 37146 ft | 427 kts | 15° |
| 2026-05-04 09:58 | 39.35399 | -11.60435 | 37148 ft | 430 kts | 19° |
| 2026-05-04 10:00 | 39.55985 | -11.43986 | 37150 ft | 435 kts | 27° |
| 2026-05-04 10:04 | 39.91488 | -11.13948 | 37141 ft | 436 kts | 27° |
| 2026-05-04 10:04 | 39.96564 | -11.09624 | 37151 ft | 436 kts | 27° |
| 2026-05-04 10:05 | 40.01640 | -11.05291 | 37145 ft | 436 kts | 27° |
| 2026-05-04 10:05 | 40.06713 | -11.00953 | 37139 ft | 436 kts | 27° |
| 2026-05-04 10:06 | 40.11781 | -10.96611 | 37136 ft | 436 kts | 27° |
| 2026-05-04 10:06 | 40.16852 | -10.92260 | 37148 ft | 436 kts | 27° |
| 2026-05-04 10:08 | 40.34631 | -10.76937 | 37137 ft | 437 kts | 28° |
| 2026-05-04 10:08 | 40.39673 | -10.72574 | 37137 ft | 437 kts | 28° |
| 2026-05-04 10:09 | 40.44745 | -10.68177 | 37135 ft | 437 kts | 28° |
| 2026-05-04 10:09 | 40.49817 | -10.63772 | 37131 ft | 437 kts | 28° |
| 2026-05-04 10:10 | 40.54886 | -10.59361 | 37128 ft | 436 kts | 28° |
| 2026-05-04 10:10 | 40.59953 | -10.54944 | 37129 ft | 437 kts | 28° |
| 2026-05-04 10:11 | 40.65037 | -10.50504 | 37131 ft | 438 kts | 28° |
| 2026-05-04 10:11 | 40.70118 | -10.46059 | 37136 ft | 438 kts | 28° |
| 2026-05-04 10:12 | 40.75161 | -10.41638 | 37124 ft | 438 kts | 28° |
| 2026-05-04 10:12 | 40.80231 | -10.37186 | 37122 ft | 437 kts | 28° |
| 2026-05-04 10:13 | 40.85300 | -10.32725 | 37125 ft | 437 kts | 28° |
| 2026-05-04 10:13 | 40.90367 | -10.28259 | 37137 ft | 438 kts | 28° |
| 2026-05-04 10:14 | 40.95429 | -10.23788 | 37122 ft | 438 kts | 28° |
| 2026-05-04 10:16 | 41.15740 | -10.05767 | 37118 ft | 440 kts | 28° |
| 2026-05-04 10:16 | 41.20816 | -10.01240 | 37115 ft | 440 kts | 28° |
| 2026-05-04 10:17 | 41.25892 | -9.96704 | 37115 ft | 440 kts | 28° |
| 2026-05-04 10:19 | 41.46178 | -9.78499 | 37114 ft | 442 kts | 29° |
| 2026-05-04 10:19 | 41.50409 | -9.74679 | 37112 ft | 442 kts | 29° |
| 2026-05-04 10:20 | 41.55508 | -9.70071 | 37109 ft | 442 kts | 29° |
| 2026-05-04 10:20 | 41.60600 | -9.65462 | 37111 ft | 442 kts | 29° |
| 2026-05-04 10:21 | 41.65694 | -9.60839 | 37108 ft | 442 kts | 29° |
| 2026-05-04 10:21 | 41.70775 | -9.56218 | 37106 ft | 442 kts | 29° |
| 2026-05-04 10:22 | 41.78370 | -9.49291 | 37103 ft | 442 kts | 30° |
| 2026-05-04 10:23 | 41.83447 | -9.44649 | 37120 ft | 442 kts | 30° |
| 2026-05-04 10:25 | 42.04182 | -9.27084 | 37114 ft | 440 kts | 26° |
| 2026-05-04 10:25 | 42.09490 | -9.22864 | 37100 ft | 440 kts | 26° |
| 2026-05-04 10:26 | 42.14759 | -9.18656 | 37094 ft | 440 kts | 26° |
| 2026-05-04 10:26 | 42.19998 | -9.14461 | 37091 ft | 440 kts | 26° |
| 2026-05-04 10:27 | 42.25264 | -9.10236 | 37103 ft | 440 kts | 26° |
| 2026-05-04 10:27 | 42.30536 | -9.06006 | 37086 ft | 441 kts | 27° |
| 2026-05-04 10:28 | 42.35813 | -9.01752 | 37078 ft | 441 kts | 27° |
| 2026-05-04 10:28 | 42.41090 | -8.97491 | 37077 ft | 441 kts | 27° |
| 2026-05-04 10:29 | 42.46326 | -8.93256 | 37072 ft | 441 kts | 27° |
| 2026-05-04 10:29 | 42.51605 | -8.88978 | 37070 ft | 441 kts | 27° |
| 2026-05-04 10:30 | 42.56882 | -8.84693 | 37068 ft | 441 kts | 27° |
| 2026-05-04 10:30 | 42.62150 | -8.80408 | 37070 ft | 441 kts | 27° |
| 2026-05-04 10:31 | 42.67422 | -8.76111 | 37067 ft | 441 kts | 27° |
| 2026-05-04 10:32 | 42.85795 | -8.61068 | 37063 ft | 441 kts | 27° |
| 2026-05-04 10:33 | 42.91054 | -8.56742 | 37076 ft | 441 kts | 28° |
| 2026-05-04 10:33 | 42.96307 | -8.52415 | 37062 ft | 441 kts | 28° |
| 2026-05-04 10:34 | 43.01559 | -8.48076 | 37049 ft | 441 kts | 28° |
| 2026-05-04 10:34 | 43.06809 | -8.43732 | 37060 ft | 441 kts | 28° |
| 2026-05-04 10:35 | 43.12056 | -8.39379 | 37057 ft | 441 kts | 28° |
| 2026-05-04 10:35 | 43.17298 | -8.35026 | 37041 ft | 440 kts | 28° |
| 2026-05-04 10:36 | 43.22546 | -8.30661 | 37040 ft | 441 kts | 28° |
| 2026-05-04 10:36 | 43.27764 | -8.26306 | 37041 ft | 442 kts | 28° |
| 2026-05-04 10:37 | 43.33015 | -8.21913 | 37042 ft | 442 kts | 28° |
| 2026-05-04 10:37 | 43.38261 | -8.17520 | 37041 ft | 441 kts | 29° |
| 2026-05-04 10:39 | 43.56609 | -8.02079 | 37045 ft | 441 kts | 29° |
| 2026-05-04 10:40 | 43.61807 | -7.97685 | 37038 ft | 441 kts | 29° |
| 2026-05-04 10:40 | 43.67038 | -7.93251 | 37038 ft | 441 kts | 29° |
| 2026-05-04 10:41 | 43.72263 | -7.88815 | 37037 ft | 441 kts | 29° |
| 2026-05-04 10:41 | 43.77486 | -7.84373 | 37049 ft | 440 kts | 30° |
| 2026-05-04 10:42 | 43.82702 | -7.79926 | 37042 ft | 440 kts | 30° |
| 2026-05-04 10:42 | 43.87913 | -7.75473 | 37040 ft | 440 kts | 30° |
| 2026-05-04 10:43 | 43.93122 | -7.71013 | 37040 ft | 440 kts | 30° |
| 2026-05-04 10:45 | 44.13895 | -7.53135 | 37037 ft | 440 kts | 30° |
| 2026-05-04 10:45 | 44.19103 | -7.48632 | 37046 ft | 440 kts | 30° |
| 2026-05-04 10:46 | 44.24303 | -7.44125 | 37037 ft | 440 kts | 30° |
| 2026-05-04 10:46 | 44.29496 | -7.39610 | 37038 ft | 439 kts | 30° |
| 2026-05-04 10:47 | 44.34684 | -7.35092 | 37030 ft | 439 kts | 30° |
| 2026-05-04 10:47 | 44.39874 | -7.30564 | 37034 ft | 439 kts | 31° |
| 2026-05-04 10:49 | 44.60580 | -7.12393 | 37028 ft | 440 kts | 31° |
| 2026-05-04 10:50 | 44.65769 | -7.07812 | 37024 ft | 440 kts | 31° |
| 2026-05-04 10:52 | 44.86546 | -6.89567 | 37021 ft | 439 kts | 29° |
| 2026-05-04 10:52 | 44.91835 | -6.85251 | 37013 ft | 439 kts | 29° |
| 2026-05-04 10:54 | 45.12950 | -6.67845 | 37020 ft | 439 kts | 29° |
| 2026-05-04 10:56 | 45.31768 | -6.52189 | 37017 ft | 471 kts | 30° |
| 2026-05-04 10:56 | 45.34622 | -6.49807 | 37013 ft | 480 kts | 30° |
| 2026-05-04 10:57 | 45.40435 | -6.44944 | 36999 ft | 495 kts | 30° |
| 2026-05-04 10:57 | 45.46387 | -6.39951 | 37014 ft | 497 kts | 30° |
| 2026-05-04 10:58 | 45.52350 | -6.34932 | 37000 ft | 497 kts | 30° |
| 2026-05-04 10:58 | 45.58312 | -6.29901 | 36998 ft | 497 kts | 30° |
| 2026-05-04 10:59 | 45.64268 | -6.24864 | 36991 ft | 497 kts | 30° |
| 2026-05-04 10:59 | 45.70226 | -6.19811 | 37006 ft | 498 kts | 30° |
| 2026-05-04 11:00 | 45.76186 | -6.14740 | 37007 ft | 498 kts | 30° |
| 2026-05-04 11:02 | 45.99950 | -5.94401 | 36999 ft | 497 kts | 31° |
| 2026-05-04 11:05 | 46.44516 | -5.55675 | 37003 ft | 499 kts | 31° |
| 2026-05-04 11:06 | 46.50404 | -5.50490 | 36983 ft | 498 kts | 32° |
| 2026-05-04 11:06 | 46.56332 | -5.45258 | 37001 ft | 498 kts | 31° |
| 2026-05-04 11:10 | 46.93987 | -5.00790 | 36999 ft | 497 kts | 41° |
| 2026-05-04 11:12 | 47.15035 | -4.74572 | 36987 ft | 496 kts | 41° |
| 2026-05-04 11:12 | 47.20293 | -4.67978 | 36987 ft | 496 kts | 41° |
| 2026-05-04 11:13 | 47.25551 | -4.61366 | 36987 ft | 496 kts | 41° |
| 2026-05-04 11:13 | 47.30799 | -4.54748 | 36986 ft | 496 kts | 41° |
| 2026-05-04 11:14 | 47.36035 | -4.48129 | 36986 ft | 496 kts | 41° |
| 2026-05-04 11:16 | 47.56906 | -4.21558 | 36985 ft | 494 kts | 41° |
| 2026-05-04 11:16 | 47.61235 | -4.16010 | 36973 ft | 495 kts | 41° |
| 2026-05-04 11:17 | 47.66446 | -4.09313 | 36980 ft | 496 kts | 41° |
| 2026-05-04 11:19 | 47.87241 | -3.82389 | 36979 ft | 495 kts | 42° |
| 2026-05-04 11:19 | 47.92422 | -3.75622 | 36970 ft | 495 kts | 42° |
| 2026-05-04 11:20 | 47.97603 | -3.68837 | 36968 ft | 495 kts | 42° |
| 2026-05-04 11:20 | 48.02893 | -3.62360 | 36969 ft | 495 kts | 37° |
| 2026-05-04 11:22 | 48.26409 | -3.40730 | 36966 ft | 495 kts | 32° |
| 2026-05-04 11:23 | 48.32303 | -3.35388 | 36971 ft | 495 kts | 32° |
| 2026-05-04 11:25 | 48.52902 | -3.16594 | 37002 ft | 494 kts | 32° |
| 2026-05-04 11:25 | 48.58774 | -3.11202 | 37006 ft | 494 kts | 32° |
| 2026-05-04 11:27 | 48.85233 | -2.86719 | 37002 ft | 496 kts | 32° |
| 2026-05-04 11:28 | 48.91077 | -2.81269 | 37002 ft | 496 kts | 32° |
| 2026-05-04 11:28 | 48.96965 | -2.75761 | 37005 ft | 496 kts | 32° |
| 2026-05-04 11:29 | 49.02836 | -2.70253 | 37004 ft | 496 kts | 32° |
| 2026-05-04 11:29 | 49.08704 | -2.64730 | 37007 ft | 495 kts | 32° |
| 2026-05-04 11:33 | 49.49926 | -2.27973 | 34884 ft | 476 kts | 30° |
| 2026-05-04 11:33 | 49.52807 | -2.25508 | 34487 ft | 472 kts | 30° |
| 2026-05-04 11:33 | 49.55665 | -2.23058 | 34056 ft | 469 kts | 30° |
| 2026-05-04 11:34 | 49.58505 | -2.20620 | 33586 ft | 466 kts | 31° |
| 2026-05-04 11:34 | 49.61298 | -2.18219 | 33125 ft | 465 kts | 31° |
| 2026-05-04 11:34 | 49.64118 | -2.15793 | 32664 ft | 463 kts | 31° |
| 2026-05-04 11:34 | 49.66922 | -2.13375 | 32211 ft | 461 kts | 31° |
| 2026-05-04 11:35 | 49.69721 | -2.10959 | 31765 ft | 459 kts | 31° |
| 2026-05-04 11:35 | 49.72503 | -2.08555 | 31331 ft | 457 kts | 31° |
| 2026-05-04 11:35 | 49.75275 | -2.06154 | 30900 ft | 455 kts | 31° |
| 2026-05-04 11:35 | 49.78028 | -2.03766 | 30469 ft | 453 kts | 31° |
| 2026-05-04 11:36 | 49.80774 | -2.01382 | 30046 ft | 451 kts | 32° |
| 2026-05-04 11:36 | 49.83504 | -1.99007 | 29548 ft | 449 kts | 32° |
| 2026-05-04 11:36 | 49.86220 | -1.96637 | 29062 ft | 447 kts | 31° |
| 2026-05-04 11:36 | 49.88922 | -1.94277 | 28583 ft | 444 kts | 31° |
| 2026-05-04 11:37 | 49.91601 | -1.91933 | 28110 ft | 441 kts | 31° |
| 2026-05-04 11:37 | 49.94269 | -1.89597 | 27687 ft | 437 kts | 31° |
| 2026-05-04 11:37 | 49.96901 | -1.87294 | 27613 ft | 433 kts | 31° |
| 2026-05-04 11:37 | 49.99535 | -1.84998 | 27616 ft | 434 kts | 30° |
| 2026-05-04 11:38 | 50.02206 | -1.82821 | 27612 ft | 434 kts | 28° |
| 2026-05-04 11:38 | 50.04899 | -1.80687 | 27604 ft | 435 kts | 28° |
| 2026-05-04 11:38 | 50.07601 | -1.78559 | 27609 ft | 435 kts | 28° |
| 2026-05-04 11:38 | 50.10269 | -1.76336 | 27627 ft | 435 kts | 32° |
| 2026-05-04 11:39 | 50.12837 | -1.73855 | 27603 ft | 434 kts | 36° |
| 2026-05-04 11:39 | 50.15290 | -1.71106 | 27163 ft | 433 kts | 40° |
| 2026-05-04 11:40 | 50.29035 | -1.53203 | 24295 ft | 424 kts | 40° |
| 2026-05-04 11:41 | 50.31303 | -1.50279 | 23860 ft | 421 kts | 40° |
| 2026-05-04 11:41 | 50.33558 | -1.47365 | 23395 ft | 419 kts | 40° |
| 2026-05-04 11:41 | 50.35799 | -1.44461 | 22898 ft | 416 kts | 40° |
| 2026-05-04 11:41 | 50.38025 | -1.41569 | 22409 ft | 414 kts | 41° |
| 2026-05-04 11:42 | 50.40233 | -1.38692 | 21917 ft | 411 kts | 41° |
| 2026-05-04 11:42 | 50.42422 | -1.35828 | 21478 ft | 407 kts | 41° |
| 2026-05-04 11:42 | 50.44584 | -1.32997 | 21089 ft | 402 kts | 41° |
| 2026-05-04 11:42 | 50.46722 | -1.30198 | 20703 ft | 398 kts | 41° |
| 2026-05-04 11:43 | 50.48850 | -1.27414 | 20310 ft | 394 kts | 41° |
| 2026-05-04 11:43 | 50.50914 | -1.24710 | 19937 ft | 389 kts | 41° |
| 2026-05-04 11:43 | 50.52999 | -1.21984 | 19566 ft | 385 kts | 41° |
| 2026-05-04 11:43 | 50.55073 | -1.19263 | 19187 ft | 381 kts | 41° |
| 2026-05-04 11:44 | 50.57109 | -1.16583 | 18823 ft | 377 kts | 41° |
| 2026-05-04 11:44 | 50.59117 | -1.13936 | 18459 ft | 373 kts | 41° |
| 2026-05-04 11:44 | 50.61100 | -1.11319 | 18069 ft | 370 kts | 41° |
| 2026-05-04 11:44 | 50.63060 | -1.08729 | 17658 ft | 366 kts | 42° |
| 2026-05-04 11:45 | 50.64886 | -1.05978 | 17217 ft | 361 kts | 54° |
| 2026-05-04 11:45 | 50.66125 | -1.02580 | 16741 ft | 356 kts | 68° |
| 2026-05-04 11:45 | 50.67104 | -0.98954 | 16222 ft | 357 kts | 70° |
| 2026-05-04 11:45 | 50.68025 | -0.95320 | 15710 ft | 357 kts | 70° |
| 2026-05-04 11:46 | 50.68935 | -0.91666 | 15201 ft | 358 kts | 70° |
| 2026-05-04 11:46 | 50.69839 | -0.87977 | 14690 ft | 358 kts | 70° |
| 2026-05-04 11:46 | 50.70731 | -0.84304 | 14207 ft | 358 kts | 70° |
| 2026-05-04 11:46 | 50.71603 | -0.80690 | 13624 ft | 353 kts | 70° |
| 2026-05-04 11:47 | 50.72461 | -0.77122 | 13176 ft | 337 kts | 70° |
| 2026-05-04 11:47 | 50.73284 | -0.73696 | 12735 ft | 323 kts | 70° |
| 2026-05-04 11:47 | 50.74057 | -0.70480 | 12331 ft | 310 kts | 71° |
| 2026-05-04 11:47 | 50.74678 | -0.67270 | 11951 ft | 303 kts | 78° |
| 2026-05-04 11:48 | 50.75124 | -0.63999 | 11542 ft | 303 kts | 80° |
| 2026-05-04 11:48 | 50.75538 | -0.60683 | 11127 ft | 302 kts | 81° |
| 2026-05-04 11:48 | 50.75937 | -0.57417 | 10734 ft | 302 kts | 81° |
| 2026-05-04 11:48 | 50.76343 | -0.54080 | 10330 ft | 302 kts | 81° |
| 2026-05-04 11:49 | 50.76740 | -0.50794 | 9939 ft | 302 kts | 81° |
| 2026-05-04 11:49 | 50.77134 | -0.47529 | 9510 ft | 302 kts | 81° |
| 2026-05-04 11:49 | 50.77524 | -0.44268 | 9092 ft | 301 kts | 81° |
| 2026-05-04 11:49 | 50.77914 | -0.40998 | 8660 ft | 301 kts | 81° |
| 2026-05-04 11:50 | 50.78298 | -0.37741 | 8220 ft | 300 kts | 81° |
| 2026-05-04 11:50 | 50.78674 | -0.34527 | 7998 ft | 291 kts | 80° |
| 2026-05-04 11:50 | 50.79038 | -0.31442 | 7888 ft | 283 kts | 81° |
| 2026-05-04 11:50 | 50.79397 | -0.28396 | 7631 ft | 280 kts | 80° |
| 2026-05-04 11:51 | 50.79742 | -0.25406 | 7386 ft | 279 kts | 81° |
| 2026-05-04 11:51 | 50.80147 | -0.22410 | 7117 ft | 278 kts | 70° |
| 2026-05-04 11:51 | 50.81188 | -0.19917 | 7013 ft | 267 kts | 43° |
| 2026-05-04 11:51 | 50.82579 | -0.18102 | 6975 ft | 254 kts | 37° |
| 2026-05-04 11:52 | 50.84010 | -0.16447 | 6635 ft | 254 kts | 36° |
| 2026-05-04 11:52 | 50.85444 | -0.14823 | 6308 ft | 253 kts | 36° |
| 2026-05-04 11:52 | 50.86872 | -0.13209 | 6023 ft | 249 kts | 36° |
| 2026-05-04 11:52 | 50.88252 | -0.11651 | 6000 ft | 241 kts | 35° |
| 2026-05-04 11:53 | 50.89766 | -0.10544 | 5982 ft | 242 kts | 7° |
| 2026-05-04 11:53 | 50.91421 | -0.10786 | 5796 ft | 241 kts | 336° |
| 2026-05-04 11:53 | 50.92742 | -0.12362 | 5565 ft | 240 kts | 304° |
| 2026-05-04 11:53 | 50.93415 | -0.14749 | 5315 ft | 237 kts | 285° |
| 2026-05-04 11:55 | 50.96457 | -0.32148 | 3871 ft | 233 kts | 300° |
| 2026-05-04 11:55 | 50.97264 | -0.34334 | 3654 ft | 232 kts | 300° |
| 2026-05-04 11:56 | 50.98096 | -0.36570 | 3429 ft | 232 kts | 301° |
| 2026-05-04 11:56 | 50.98916 | -0.38778 | 3198 ft | 231 kts | 301° |
| 2026-05-04 11:56 | 50.99730 | -0.40971 | 3006 ft | 229 kts | 301° |
| 2026-05-04 11:56 | 51.00539 | -0.43161 | 2995 ft | 231 kts | 301° |
| 2026-05-04 11:57 | 51.01353 | -0.45370 | 3002 ft | 231 kts | 300° |
| 2026-05-04 11:57 | 51.02165 | -0.47573 | 2989 ft | 231 kts | 300° |
| 2026-05-04 11:57 | 51.02971 | -0.49746 | 2990 ft | 231 kts | 301° |
| 2026-05-04 11:57 | 51.04025 | -0.51630 | 2960 ft | 228 kts | 330° |
| 2026-05-04 11:58 | 51.05471 | -0.52286 | 2971 ft | 210 kts | 4° |
| 2026-05-04 11:58 | 51.06756 | -0.51547 | 2992 ft | 190 kts | 36° |
| 2026-05-04 11:58 | 51.07744 | -0.50177 | 2994 ft | 186 kts | 44° |
| 2026-05-04 11:58 | 51.08665 | -0.48736 | 2999 ft | 185 kts | 45° |
| 2026-05-04 11:59 | 51.09575 | -0.47286 | 2994 ft | 185 kts | 45° |
| 2026-05-04 11:59 | 51.10483 | -0.45836 | 2981 ft | 185 kts | 46° |
| 2026-05-04 11:59 | 51.11287 | -0.44252 | 2983 ft | 184 kts | 64° |
| 2026-05-04 11:59 | 51.11675 | -0.42390 | 2944 ft | 171 kts | 76° |
| 2026-05-04 12:00 | 51.11925 | -0.40567 | 2731 ft | 166 kts | 78° |
| 2026-05-04 12:00 | 51.12147 | -0.38779 | 2500 ft | 162 kts | 78° |
| 2026-05-04 12:00 | 51.12369 | -0.37025 | 2287 ft | 162 kts | 78° |
| 2026-05-04 12:00 | 51.12601 | -0.35266 | 2089 ft | 161 kts | 78° |
| 2026-05-04 12:01 | 51.12836 | -0.33521 | 1873 ft | 161 kts | 77° |
| 2026-05-04 12:01 | 51.13072 | -0.31778 | 1660 ft | 160 kts | 77° |
| 2026-05-04 12:02 | 51.14403 | -0.22015 | 410 ft | 142 kts | 77° |
| 2026-05-04 12:03 | 51.14614 | -0.20483 | 234 ft | 140 kts | 77° |
| 2026-05-04 12:03 | 51.14784 | -0.19247 | 217 ft | 78 kts | 78° |
| 2026-05-04 12:03 | 51.14876 | -0.18660 | 218 ft | 36 kts | 62° |
| 2026-05-04 12:03 | 51.14990 | -0.18414 | 221 ft | 22 kts | 51° |
| 2026-05-04 12:04 | 51.15046 | -0.18304 | 221 ft | 0 kts | 51° |
| 2026-05-04 12:05 | 51.15065 | -0.18266 | 216 ft | 14 kts | 51° |
| 2026-05-04 12:06 | 51.15128 | -0.18091 | 220 ft | 23 kts | 72° |
| 2026-05-04 12:06 | 51.15165 | -0.17846 | 219 ft | 17 kts | 70° |
| 2026-05-04 12:06 | 51.15201 | -0.17669 | 221 ft | 21 kts | 77° |
| 2026-05-04 12:06 | 51.15235 | -0.17416 | 218 ft | 20 kts | 59° |
| 2026-05-04 12:07 | 51.15260 | -0.17378 | 217 ft | 0 kts | 27° |
| 2026-05-04 12:08 | 51.15261 | -0.17378 | 212 ft | 0 kts | 27° |
| 2026-05-04 12:09 | 51.15263 | -0.17376 | 212 ft | 1 kts | 26° |
| 2026-05-04 12:09 | 51.15287 | -0.17365 | 218 ft | 5 kts | 8° |
| 2026-05-04 12:09 | 51.15321 | -0.17367 | 216 ft | 7 kts | 354° |
| 2026-05-04 12:09 | 51.15445 | -0.17396 | 218 ft | 27 kts | 350° |
| 2026-05-04 12:10 | 51.15590 | -0.17457 | 219 ft | 20 kts | 348° |
| 2026-05-04 12:10 | 51.15684 | -0.17486 | 218 ft | 0 kts | 349° |
| 2026-05-04 12:10 | 51.15687 | -0.17487 | 218 ft | 0 kts | 349° |
| 2026-05-04 12:11 | 51.15688 | -0.17487 | 218 ft | 2 kts | 349° |
| 2026-05-04 12:11 | 51.15743 | -0.17549 | 218 ft | 6 kts | 281° |
| 2026-05-04 12:11 | 51.15740 | -0.17597 | 217 ft | 12 kts | 262° |
| 2026-05-04 12:12 | 51.15748 | -0.17707 | 218 ft | 5 kts | 314° |
| 2026-05-04 12:12 | 51.15770 | -0.17719 | 218 ft | 4 kts | 352° |
| 2026-05-04 12:12 | 51.15795 | -0.17726 | 220 ft | 5 kts | 349° |
| 2026-05-04 12:12 | 51.15807 | -0.17730 | 219 ft | 4 kts | 348° |
| 2026-05-04 12:13 | 51.15815 | -0.17732 | 219 ft | 2 kts | 348° |
| 2026-05-04 12:14 | 51.15818 | -0.17733 | 212 ft | 0 kts | 348° |